
<gpx xmlns="http://www.topografix.com/GPX/1/1" xmlns:gpxx="http://www.garmin.com/xmlschemas/GpxExtensions/v3" xmlns:xsi="http://www.w3.org/2001/XMLSchema-instance" version="1.1" creator="Adze - https://getadze.com/" xsi:schemaLocation="http://www.topografix.com/GPX/1/1 http://www.topografix.com/GPX/1/1/gpx.xsd http://www.garmin.com/xmlschemas/GpxExtensions/v3 http://www.garmin.com/xmlschemas/GpxExtensionsv3.xsd">
    <metadata>
        <name>Untitled Document</name>
        <time>2018-03-05T02:19:32.082Z</time>
    </metadata>
    <trk>
        <name>August 2004</name>
        <extensions>
            <gpxx:TrackExtension>
                <gpxx:DisplayColor>DarkMagenta</gpxx:DisplayColor>
            </gpxx:TrackExtension>
        </extensions>
        <trkseg>
            <trkpt lon="100.969076" lat="13.183250">
                <ele>83.291382</ele>
                <time>2004-08-28T06:18:25Z</time>
            </trkpt>
            <trkpt lon="100.969012" lat="13.183272">
                <ele>54.451782</ele>
                <time>2004-08-28T06:19:02Z</time>
            </trkpt>
            <trkpt lon="100.969012" lat="13.183315">
                <ele>41.954712</ele>
                <time>2004-08-28T06:24:03Z</time>
            </trkpt>
            <trkpt lon="100.968947" lat="13.183272">
                <ele>37.148071</ele>
                <time>2004-08-28T06:28:32Z</time>
            </trkpt>
            <trkpt lon="100.968947" lat="13.183250">
                <ele>37.628662</ele>
                <time>2004-08-28T06:29:05Z</time>
            </trkpt>
            <trkpt lon="100.968947" lat="13.183208">
                <ele>32.341553</ele>
                <time>2004-08-28T06:30:13Z</time>
            </trkpt>
            <trkpt lon="100.968947" lat="13.183336">
                <ele>32.822266</ele>
                <time>2004-08-28T06:31:29Z</time>
            </trkpt>
            <trkpt lon="100.968947" lat="13.183379">
                <ele>33.302856</ele>
                <time>2004-08-28T06:31:31Z</time>
            </trkpt>
            <trkpt lon="100.969505" lat="13.184109">
                <ele>36.186768</ele>
                <time>2004-08-28T06:31:48Z</time>
            </trkpt>
            <trkpt lon="100.969827" lat="13.184474">
                <ele>35.225464</ele>
                <time>2004-08-28T06:31:56Z</time>
            </trkpt>
            <trkpt lon="100.969999" lat="13.184538">
                <ele>35.225464</ele>
                <time>2004-08-28T06:31:59Z</time>
            </trkpt>
            <trkpt lon="100.970213" lat="13.184559">
                <ele>35.706055</ele>
                <time>2004-08-28T06:32:02Z</time>
            </trkpt>
            <trkpt lon="100.970600" lat="13.184431">
                <ele>35.225464</ele>
                <time>2004-08-28T06:32:08Z</time>
            </trkpt>
            <trkpt lon="100.970836" lat="13.184259">
                <ele>36.667480</ele>
                <time>2004-08-28T06:32:13Z</time>
            </trkpt>
            <trkpt lon="100.971737" lat="13.182800">
                <ele>36.186768</ele>
                <time>2004-08-28T06:32:41Z</time>
            </trkpt>
            <trkpt lon="100.971994" lat="13.181791">
                <ele>35.706055</ele>
                <time>2004-08-28T06:32:59Z</time>
            </trkpt>
            <trkpt lon="100.972080" lat="13.180826">
                <ele>37.148071</ele>
                <time>2004-08-28T06:33:15Z</time>
            </trkpt>
            <trkpt lon="100.971930" lat="13.179538">
                <ele>36.186768</ele>
                <time>2004-08-28T06:33:37Z</time>
            </trkpt>
            <trkpt lon="100.971801" lat="13.178809">
                <ele>33.302856</ele>
                <time>2004-08-28T06:33:53Z</time>
            </trkpt>
            <trkpt lon="100.971694" lat="13.177693">
                <ele>33.783447</ele>
                <time>2004-08-28T06:34:14Z</time>
            </trkpt>
            <trkpt lon="100.971694" lat="13.177028">
                <ele>35.706055</ele>
                <time>2004-08-28T06:34:24Z</time>
            </trkpt>
            <trkpt lon="100.972016" lat="13.176513">
                <ele>34.264160</ele>
                <time>2004-08-28T06:34:33Z</time>
            </trkpt>
            <trkpt lon="100.972166" lat="13.176384">
                <ele>34.264160</ele>
                <time>2004-08-28T06:34:36Z</time>
            </trkpt>
            <trkpt lon="100.972338" lat="13.176298">
                <ele>34.264160</ele>
                <time>2004-08-28T06:34:39Z</time>
            </trkpt>
            <trkpt lon="100.973089" lat="13.176191">
                <ele>35.225464</ele>
                <time>2004-08-28T06:34:51Z</time>
            </trkpt>
            <trkpt lon="100.973325" lat="13.176277">
                <ele>35.225464</ele>
                <time>2004-08-28T06:34:55Z</time>
            </trkpt>
            <trkpt lon="100.973668" lat="13.176513">
                <ele>37.148071</ele>
                <time>2004-08-28T06:35:01Z</time>
            </trkpt>
            <trkpt lon="100.974076" lat="13.177156">
                <ele>37.148071</ele>
                <time>2004-08-28T06:35:13Z</time>
            </trkpt>
            <trkpt lon="100.974355" lat="13.178508">
                <ele>38.109375</ele>
                <time>2004-08-28T06:35:32Z</time>
            </trkpt>
            <trkpt lon="100.974741" lat="13.180311">
                <ele>37.148071</ele>
                <time>2004-08-28T06:35:59Z</time>
            </trkpt>
            <trkpt lon="100.975020" lat="13.181834">
                <ele>36.186768</ele>
                <time>2004-08-28T06:36:21Z</time>
            </trkpt>
            <trkpt lon="100.975063" lat="13.183615">
                <ele>35.225464</ele>
                <time>2004-08-28T06:36:47Z</time>
            </trkpt>
            <trkpt lon="100.975385" lat="13.184538">
                <ele>35.706055</ele>
                <time>2004-08-28T06:37:02Z</time>
            </trkpt>
            <trkpt lon="100.976093" lat="13.185954">
                <ele>36.667480</ele>
                <time>2004-08-28T06:37:25Z</time>
            </trkpt>
            <trkpt lon="100.976543" lat="13.186491">
                <ele>36.667480</ele>
                <time>2004-08-28T06:37:35Z</time>
            </trkpt>
            <trkpt lon="100.977638" lat="13.187134">
                <ele>36.186768</ele>
                <time>2004-08-28T06:37:54Z</time>
            </trkpt>
            <trkpt lon="100.978839" lat="13.187413">
                <ele>35.706055</ele>
                <time>2004-08-28T06:38:12Z</time>
            </trkpt>
            <trkpt lon="100.980062" lat="13.187306">
                <ele>35.706055</ele>
                <time>2004-08-28T06:38:30Z</time>
            </trkpt>
            <trkpt lon="100.981157" lat="13.186898">
                <ele>37.628662</ele>
                <time>2004-08-28T06:38:48Z</time>
            </trkpt>
            <trkpt lon="100.982466" lat="13.186126">
                <ele>36.186768</ele>
                <time>2004-08-28T06:39:10Z</time>
            </trkpt>
            <trkpt lon="100.983517" lat="13.185911">
                <ele>35.225464</ele>
                <time>2004-08-28T06:39:26Z</time>
            </trkpt>
            <trkpt lon="100.984955" lat="13.185976">
                <ele>36.186768</ele>
                <time>2004-08-28T06:39:48Z</time>
            </trkpt>
            <trkpt lon="100.986757" lat="13.186061">
                <ele>35.706055</ele>
                <time>2004-08-28T06:40:14Z</time>
            </trkpt>
            <trkpt lon="100.988302" lat="13.186126">
                <ele>33.783447</ele>
                <time>2004-08-28T06:40:37Z</time>
            </trkpt>
            <trkpt lon="100.990126" lat="13.186190">
                <ele>33.783447</ele>
                <time>2004-08-28T06:41:02Z</time>
            </trkpt>
            <trkpt lon="100.992272" lat="13.186297">
                <ele>32.341553</ele>
                <time>2004-08-28T06:41:33Z</time>
            </trkpt>
            <trkpt lon="100.994332" lat="13.186555">
                <ele>32.822266</ele>
                <time>2004-08-28T06:42:04Z</time>
            </trkpt>
            <trkpt lon="100.994804" lat="13.186855">
                <ele>33.302856</ele>
                <time>2004-08-28T06:42:12Z</time>
            </trkpt>
            <trkpt lon="100.995126" lat="13.187177">
                <ele>34.264160</ele>
                <time>2004-08-28T06:42:18Z</time>
            </trkpt>
            <trkpt lon="100.995340" lat="13.187907">
                <ele>35.225464</ele>
                <time>2004-08-28T06:42:30Z</time>
            </trkpt>
            <trkpt lon="100.995383" lat="13.188186">
                <ele>35.706055</ele>
                <time>2004-08-28T06:42:35Z</time>
            </trkpt>
            <trkpt lon="100.995555" lat="13.189709">
                <ele>37.148071</ele>
                <time>2004-08-28T06:43:03Z</time>
            </trkpt>
            <trkpt lon="100.995705" lat="13.191211">
                <ele>38.590088</ele>
                <time>2004-08-28T06:43:31Z</time>
            </trkpt>
            <trkpt lon="100.995770" lat="13.192456">
                <ele>36.667480</ele>
                <time>2004-08-28T06:43:52Z</time>
            </trkpt>
            <trkpt lon="100.995469" lat="13.193743">
                <ele>31.860718</ele>
                <time>2004-08-28T06:44:11Z</time>
            </trkpt>
            <trkpt lon="100.995212" lat="13.194752">
                <ele>30.418823</ele>
                <time>2004-08-28T06:44:28Z</time>
            </trkpt>
            <trkpt lon="100.994782" lat="13.195760">
                <ele>32.341553</ele>
                <time>2004-08-28T06:44:48Z</time>
            </trkpt>
            <trkpt lon="100.993989" lat="13.196511">
                <ele>30.418823</ele>
                <time>2004-08-28T06:45:07Z</time>
            </trkpt>
            <trkpt lon="100.992465" lat="13.197885">
                <ele>28.496216</ele>
                <time>2004-08-28T06:45:39Z</time>
            </trkpt>
            <trkpt lon="100.992229" lat="13.198099">
                <ele>28.976929</ele>
                <time>2004-08-28T06:45:46Z</time>
            </trkpt>
            <trkpt lon="100.992100" lat="13.198078">
                <ele>27.534912</ele>
                <time>2004-08-28T06:45:59Z</time>
            </trkpt>
            <trkpt lon="100.992079" lat="13.198035">
                <ele>25.131714</ele>
                <time>2004-08-28T06:46:18Z</time>
            </trkpt>
            <trkpt lon="100.992079" lat="13.198013">
                <ele>28.015503</ele>
                <time>2004-08-28T06:46:25Z</time>
            </trkpt>
            <trkpt lon="100.992057" lat="13.197927">
                <ele>31.380127</ele>
                <time>2004-08-28T06:46:44Z</time>
            </trkpt>
            <trkpt lon="100.991993" lat="13.197927">
                <ele>38.109375</ele>
                <time>2004-08-28T06:47:19Z</time>
            </trkpt>
            <trkpt lon="100.991907" lat="13.197842">
                <ele>38.109375</ele>
                <time>2004-08-28T06:47:24Z</time>
            </trkpt>
            <trkpt lon="100.991242" lat="13.196833">
                <ele>35.706055</ele>
                <time>2004-08-28T06:47:47Z</time>
            </trkpt>
            <trkpt lon="100.990620" lat="13.195610">
                <ele>34.264160</ele>
                <time>2004-08-28T06:48:10Z</time>
            </trkpt>
            <trkpt lon="100.990577" lat="13.195546">
                <ele>34.264160</ele>
                <time>2004-08-28T06:48:11Z</time>
            </trkpt>
            <trkpt lon="100.990298" lat="13.195524">
                <ele>35.225464</ele>
                <time>2004-08-28T06:48:16Z</time>
            </trkpt>
            <trkpt lon="100.990169" lat="13.195589">
                <ele>34.264160</ele>
                <time>2004-08-28T06:48:23Z</time>
            </trkpt>
            <trkpt lon="100.990148" lat="13.195610">
                <ele>34.264160</ele>
                <time>2004-08-28T06:48:44Z</time>
            </trkpt>
            <trkpt lon="100.990083" lat="13.195632">
                <ele>33.302856</ele>
                <time>2004-08-28T06:50:02Z</time>
            </trkpt>
            <trkpt lon="100.989826" lat="13.195782">
                <ele>32.822266</ele>
                <time>2004-08-28T06:50:15Z</time>
            </trkpt>
            <trkpt lon="100.989354" lat="13.196232">
                <ele>32.341553</ele>
                <time>2004-08-28T06:50:32Z</time>
            </trkpt>
            <trkpt lon="100.988495" lat="13.196876">
                <ele>33.783447</ele>
                <time>2004-08-28T06:50:57Z</time>
            </trkpt>
            <trkpt lon="100.987809" lat="13.197305">
                <ele>33.783447</ele>
                <time>2004-08-28T06:51:12Z</time>
            </trkpt>
            <trkpt lon="100.987573" lat="13.197455">
                <ele>33.783447</ele>
                <time>2004-08-28T06:51:18Z</time>
            </trkpt>
            <trkpt lon="100.987487" lat="13.197541">
                <ele>33.783447</ele>
                <time>2004-08-28T06:51:21Z</time>
            </trkpt>
            <trkpt lon="100.987401" lat="13.197670">
                <ele>33.302856</ele>
                <time>2004-08-28T06:51:31Z</time>
            </trkpt>
            <trkpt lon="100.987659" lat="13.197434">
                <ele>32.822266</ele>
                <time>2004-08-28T06:51:43Z</time>
            </trkpt>
            <trkpt lon="100.988281" lat="13.197069">
                <ele>31.860718</ele>
                <time>2004-08-28T06:52:01Z</time>
            </trkpt>
            <trkpt lon="100.988302" lat="13.197048">
                <ele>32.341553</ele>
                <time>2004-08-28T06:52:12Z</time>
            </trkpt>
            <trkpt lon="100.988495" lat="13.196898">
                <ele>31.860718</ele>
                <time>2004-08-28T06:52:47Z</time>
            </trkpt>
            <trkpt lon="100.989332" lat="13.196275">
                <ele>31.860718</ele>
                <time>2004-08-28T06:53:09Z</time>
            </trkpt>
            <trkpt lon="100.989890" lat="13.195760">
                <ele>30.899536</ele>
                <time>2004-08-28T06:53:22Z</time>
            </trkpt>
            <trkpt lon="100.990384" lat="13.195567">
                <ele>30.899536</ele>
                <time>2004-08-28T06:53:32Z</time>
            </trkpt>
            <trkpt lon="100.990705" lat="13.195696">
                <ele>29.938110</ele>
                <time>2004-08-28T06:53:39Z</time>
            </trkpt>
            <trkpt lon="100.991371" lat="13.196855">
                <ele>31.380127</ele>
                <time>2004-08-28T06:54:01Z</time>
            </trkpt>
            <trkpt lon="100.992079" lat="13.198035">
                <ele>33.302856</ele>
                <time>2004-08-28T06:54:23Z</time>
            </trkpt>
            <trkpt lon="100.991821" lat="13.198335">
                <ele>32.822266</ele>
                <time>2004-08-28T06:54:34Z</time>
            </trkpt>
            <trkpt lon="100.991693" lat="13.198421">
                <ele>32.822266</ele>
                <time>2004-08-28T06:54:37Z</time>
            </trkpt>
            <trkpt lon="100.991628" lat="13.198421">
                <ele>32.341553</ele>
                <time>2004-08-28T06:54:39Z</time>
            </trkpt>
            <trkpt lon="100.990684" lat="13.198035">
                <ele>31.860718</ele>
                <time>2004-08-28T06:54:57Z</time>
            </trkpt>
            <trkpt lon="100.990083" lat="13.198035">
                <ele>31.860718</ele>
                <time>2004-08-28T06:55:07Z</time>
            </trkpt>
            <trkpt lon="100.989869" lat="13.198078">
                <ele>32.341553</ele>
                <time>2004-08-28T06:55:11Z</time>
            </trkpt>
            <trkpt lon="100.989482" lat="13.199000">
                <ele>33.783447</ele>
                <time>2004-08-28T06:55:28Z</time>
            </trkpt>
            <trkpt lon="100.989053" lat="13.199601">
                <ele>34.264160</ele>
                <time>2004-08-28T06:55:40Z</time>
            </trkpt>
            <trkpt lon="100.988989" lat="13.199751">
                <ele>34.264160</ele>
                <time>2004-08-28T06:55:43Z</time>
            </trkpt>
            <trkpt lon="100.988967" lat="13.199923">
                <ele>35.225464</ele>
                <time>2004-08-28T06:55:46Z</time>
            </trkpt>
            <trkpt lon="100.988774" lat="13.200116">
                <ele>35.225464</ele>
                <time>2004-08-28T06:55:51Z</time>
            </trkpt>
            <trkpt lon="100.988710" lat="13.200288">
                <ele>35.225464</ele>
                <time>2004-08-28T06:55:54Z</time>
            </trkpt>
            <trkpt lon="100.988731" lat="13.201511">
                <ele>30.418823</ele>
                <time>2004-08-28T06:56:14Z</time>
            </trkpt>
            <trkpt lon="100.988796" lat="13.202884">
                <ele>28.976929</ele>
                <time>2004-08-28T06:56:38Z</time>
            </trkpt>
            <trkpt lon="100.988796" lat="13.202970">
                <ele>28.976929</ele>
                <time>2004-08-28T06:56:40Z</time>
            </trkpt>
            <trkpt lon="100.988860" lat="13.202991">
                <ele>28.496216</ele>
                <time>2004-08-28T06:56:44Z</time>
            </trkpt>
            <trkpt lon="100.989268" lat="13.202991">
                <ele>27.534912</ele>
                <time>2004-08-28T06:56:58Z</time>
            </trkpt>
            <trkpt lon="100.989354" lat="13.203185">
                <ele>27.534912</ele>
                <time>2004-08-28T06:57:05Z</time>
            </trkpt>
            <trkpt lon="100.989332" lat="13.203206">
                <ele>27.534912</ele>
                <time>2004-08-28T06:57:06Z</time>
            </trkpt>
            <trkpt lon="100.989225" lat="13.203399">
                <ele>27.534912</ele>
                <time>2004-08-28T06:57:11Z</time>
            </trkpt>
            <trkpt lon="100.989075" lat="13.204257">
                <ele>27.054321</ele>
                <time>2004-08-28T06:57:28Z</time>
            </trkpt>
            <trkpt lon="100.989118" lat="13.205287">
                <ele>26.092896</ele>
                <time>2004-08-28T06:57:48Z</time>
            </trkpt>
            <trkpt lon="100.989053" lat="13.205588">
                <ele>25.612305</ele>
                <time>2004-08-28T06:57:56Z</time>
            </trkpt>
            <trkpt lon="100.989268" lat="13.206682">
                <ele>25.131714</ele>
                <time>2004-08-28T06:58:18Z</time>
            </trkpt>
            <trkpt lon="100.989482" lat="13.207605">
                <ele>24.651001</ele>
                <time>2004-08-28T06:58:34Z</time>
            </trkpt>
            <trkpt lon="100.989933" lat="13.208592">
                <ele>24.170288</ele>
                <time>2004-08-28T06:58:52Z</time>
            </trkpt>
            <trkpt lon="100.990405" lat="13.209193">
                <ele>25.612305</ele>
                <time>2004-08-28T06:59:04Z</time>
            </trkpt>
            <trkpt lon="100.991178" lat="13.209429">
                <ele>26.092896</ele>
                <time>2004-08-28T06:59:17Z</time>
            </trkpt>
            <trkpt lon="100.992401" lat="13.209450">
                <ele>24.651001</ele>
                <time>2004-08-28T06:59:36Z</time>
            </trkpt>
            <trkpt lon="100.993795" lat="13.209343">
                <ele>23.689575</ele>
                <time>2004-08-28T06:59:56Z</time>
            </trkpt>
            <trkpt lon="100.994997" lat="13.209300">
                <ele>25.131714</ele>
                <time>2004-08-28T07:00:15Z</time>
            </trkpt>
            <trkpt lon="100.995297" lat="13.209321">
                <ele>25.131714</ele>
                <time>2004-08-28T07:00:20Z</time>
            </trkpt>
            <trkpt lon="100.995576" lat="13.209279">
                <ele>25.131714</ele>
                <time>2004-08-28T07:00:25Z</time>
            </trkpt>
            <trkpt lon="100.996027" lat="13.209300">
                <ele>25.612305</ele>
                <time>2004-08-28T07:00:33Z</time>
            </trkpt>
            <trkpt lon="100.997014" lat="13.208935">
                <ele>25.612305</ele>
                <time>2004-08-28T07:00:52Z</time>
            </trkpt>
            <trkpt lon="100.997636" lat="13.208528">
                <ele>23.208984</ele>
                <time>2004-08-28T07:01:06Z</time>
            </trkpt>
            <trkpt lon="100.997787" lat="13.208613">
                <ele>24.170288</ele>
                <time>2004-08-28T07:01:11Z</time>
            </trkpt>
            <trkpt lon="100.998001" lat="13.209429">
                <ele>26.092896</ele>
                <time>2004-08-28T07:01:27Z</time>
            </trkpt>
            <trkpt lon="100.998216" lat="13.210244">
                <ele>27.054321</ele>
                <time>2004-08-28T07:01:40Z</time>
            </trkpt>
            <trkpt lon="100.997400" lat="13.211038">
                <ele>28.015503</ele>
                <time>2004-08-28T07:01:57Z</time>
            </trkpt>
            <trkpt lon="100.996542" lat="13.211961">
                <ele>29.457520</ele>
                <time>2004-08-28T07:02:16Z</time>
            </trkpt>
            <trkpt lon="100.996435" lat="13.212197">
                <ele>29.938110</ele>
                <time>2004-08-28T07:02:20Z</time>
            </trkpt>
            <trkpt lon="100.995984" lat="13.213592">
                <ele>28.496216</ele>
                <time>2004-08-28T07:02:43Z</time>
            </trkpt>
            <trkpt lon="100.995984" lat="13.213913">
                <ele>28.015503</ele>
                <time>2004-08-28T07:02:48Z</time>
            </trkpt>
            <trkpt lon="100.996220" lat="13.214042">
                <ele>28.015503</ele>
                <time>2004-08-28T07:02:55Z</time>
            </trkpt>
            <trkpt lon="100.996263" lat="13.214042">
                <ele>28.015503</ele>
                <time>2004-08-28T07:02:56Z</time>
            </trkpt>
            <trkpt lon="100.997293" lat="13.213828">
                <ele>28.015503</ele>
                <time>2004-08-28T07:03:15Z</time>
            </trkpt>
            <trkpt lon="100.997958" lat="13.213677">
                <ele>28.015503</ele>
                <time>2004-08-28T07:03:31Z</time>
            </trkpt>
            <trkpt lon="101.001520" lat="13.211210">
                <ele>29.457520</ele>
                <time>2004-08-28T07:08:58Z</time>
            </trkpt>
            <trkpt lon="101.001563" lat="13.211274">
                <ele>29.457520</ele>
                <time>2004-08-28T07:09:03Z</time>
            </trkpt>
            <trkpt lon="101.001563" lat="13.211145">
                <ele>31.380127</ele>
                <time>2004-08-28T07:09:17Z</time>
            </trkpt>
            <trkpt lon="101.001627" lat="13.211124">
                <ele>32.341553</ele>
                <time>2004-08-28T07:09:52Z</time>
            </trkpt>
            <trkpt lon="101.001842" lat="13.210931">
                <ele>31.380127</ele>
                <time>2004-08-28T07:10:07Z</time>
            </trkpt>
            <trkpt lon="101.001842" lat="13.210931">
                <ele>32.822266</ele>
                <time>2004-08-28T07:10:28Z</time>
            </trkpt>
            <trkpt lon="101.002100" lat="13.210716">
                <ele>32.341553</ele>
                <time>2004-08-28T07:10:38Z</time>
            </trkpt>
            <trkpt lon="101.002679" lat="13.210309">
                <ele>30.899536</ele>
                <time>2004-08-28T07:10:50Z</time>
            </trkpt>
            <trkpt lon="101.003366" lat="13.209858">
                <ele>34.744873</ele>
                <time>2004-08-28T07:11:04Z</time>
            </trkpt>
            <trkpt lon="101.003709" lat="13.209600">
                <ele>37.628662</ele>
                <time>2004-08-28T07:11:15Z</time>
            </trkpt>
            <trkpt lon="101.003752" lat="13.209536">
                <ele>39.070679</ele>
                <time>2004-08-28T07:11:26Z</time>
            </trkpt>
            <trkpt lon="101.003838" lat="13.209493">
                <ele>40.512817</ele>
                <time>2004-08-28T07:12:10Z</time>
            </trkpt>
            <trkpt lon="101.004031" lat="13.209450">
                <ele>41.473999</ele>
                <time>2004-08-28T07:12:17Z</time>
            </trkpt>
            <trkpt lon="101.004632" lat="13.209064">
                <ele>42.435425</ele>
                <time>2004-08-28T07:12:35Z</time>
            </trkpt>
            <trkpt lon="101.005383" lat="13.208592">
                <ele>40.512817</ele>
                <time>2004-08-28T07:12:51Z</time>
            </trkpt>
            <trkpt lon="101.006391" lat="13.207970">
                <ele>36.667480</ele>
                <time>2004-08-28T07:13:06Z</time>
            </trkpt>
            <trkpt lon="101.007142" lat="13.207476">
                <ele>34.744873</ele>
                <time>2004-08-28T07:13:21Z</time>
            </trkpt>
            <trkpt lon="101.007185" lat="13.207455">
                <ele>34.744873</ele>
                <time>2004-08-28T07:13:23Z</time>
            </trkpt>
            <trkpt lon="101.007249" lat="13.207476">
                <ele>34.744873</ele>
                <time>2004-08-28T07:13:27Z</time>
            </trkpt>
            <trkpt lon="101.007292" lat="13.207541">
                <ele>35.225464</ele>
                <time>2004-08-28T07:13:30Z</time>
            </trkpt>
            <trkpt lon="101.006927" lat="13.207991">
                <ele>35.706055</ele>
                <time>2004-08-28T07:13:43Z</time>
            </trkpt>
            <trkpt lon="101.006112" lat="13.208656">
                <ele>33.783447</ele>
                <time>2004-08-28T07:14:00Z</time>
            </trkpt>
            <trkpt lon="101.005898" lat="13.208764">
                <ele>34.264160</ele>
                <time>2004-08-28T07:14:04Z</time>
            </trkpt>
            <trkpt lon="101.005769" lat="13.208849">
                <ele>33.783447</ele>
                <time>2004-08-28T07:14:08Z</time>
            </trkpt>
            <trkpt lon="101.005383" lat="13.209043">
                <ele>34.744873</ele>
                <time>2004-08-28T07:14:15Z</time>
            </trkpt>
            <trkpt lon="101.005168" lat="13.209257">
                <ele>35.706055</ele>
                <time>2004-08-28T07:14:21Z</time>
            </trkpt>
            <trkpt lon="101.005211" lat="13.209622">
                <ele>34.264160</ele>
                <time>2004-08-28T07:14:28Z</time>
            </trkpt>
            <trkpt lon="101.005769" lat="13.210995">
                <ele>33.783447</ele>
                <time>2004-08-28T07:14:51Z</time>
            </trkpt>
            <trkpt lon="101.006262" lat="13.211510">
                <ele>34.744873</ele>
                <time>2004-08-28T07:15:03Z</time>
            </trkpt>
            <trkpt lon="101.006563" lat="13.211961">
                <ele>36.186768</ele>
                <time>2004-08-28T07:15:12Z</time>
            </trkpt>
            <trkpt lon="101.006734" lat="13.212905">
                <ele>37.628662</ele>
                <time>2004-08-28T07:15:29Z</time>
            </trkpt>
            <trkpt lon="101.006992" lat="13.213034">
                <ele>37.628662</ele>
                <time>2004-08-28T07:15:34Z</time>
            </trkpt>
            <trkpt lon="101.007636" lat="13.212948">
                <ele>38.109375</ele>
                <time>2004-08-28T07:15:45Z</time>
            </trkpt>
            <trkpt lon="101.007872" lat="13.213077">
                <ele>39.551270</ele>
                <time>2004-08-28T07:15:50Z</time>
            </trkpt>
            <trkpt lon="101.008451" lat="13.213699">
                <ele>40.512817</ele>
                <time>2004-08-28T07:16:07Z</time>
            </trkpt>
            <trkpt lon="101.008644" lat="13.213849">
                <ele>41.473999</ele>
                <time>2004-08-28T07:16:12Z</time>
            </trkpt>
            <trkpt lon="101.008730" lat="13.213956">
                <ele>41.473999</ele>
                <time>2004-08-28T07:16:16Z</time>
            </trkpt>
            <trkpt lon="101.009095" lat="13.214278">
                <ele>40.512817</ele>
                <time>2004-08-28T07:16:31Z</time>
            </trkpt>
            <trkpt lon="101.009116" lat="13.214321">
                <ele>40.512817</ele>
                <time>2004-08-28T07:16:33Z</time>
            </trkpt>
            <trkpt lon="101.009395" lat="13.214622">
                <ele>39.551270</ele>
                <time>2004-08-28T07:16:47Z</time>
            </trkpt>
            <trkpt lon="101.009524" lat="13.214900">
                <ele>40.032104</ele>
                <time>2004-08-28T07:16:59Z</time>
            </trkpt>
            <trkpt lon="101.009717" lat="13.215330">
                <ele>40.032104</ele>
                <time>2004-08-28T07:17:13Z</time>
            </trkpt>
            <trkpt lon="101.009867" lat="13.215866">
                <ele>39.070679</ele>
                <time>2004-08-28T07:17:27Z</time>
            </trkpt>
            <trkpt lon="101.009910" lat="13.216209">
                <ele>39.551270</ele>
                <time>2004-08-28T07:17:37Z</time>
            </trkpt>
            <trkpt lon="101.009867" lat="13.216660">
                <ele>39.070679</ele>
                <time>2004-08-28T07:17:50Z</time>
            </trkpt>
            <trkpt lon="101.009653" lat="13.217261">
                <ele>39.070679</ele>
                <time>2004-08-28T07:18:07Z</time>
            </trkpt>
            <trkpt lon="101.009610" lat="13.217325">
                <ele>39.070679</ele>
                <time>2004-08-28T07:18:09Z</time>
            </trkpt>
            <trkpt lon="101.009545" lat="13.217475">
                <ele>39.070679</ele>
                <time>2004-08-28T07:18:13Z</time>
            </trkpt>
            <trkpt lon="101.009567" lat="13.217711">
                <ele>39.551270</ele>
                <time>2004-08-28T07:18:19Z</time>
            </trkpt>
            <trkpt lon="101.009696" lat="13.217883">
                <ele>39.551270</ele>
                <time>2004-08-28T07:18:24Z</time>
            </trkpt>
            <trkpt lon="101.010318" lat="13.218398">
                <ele>41.473999</ele>
                <time>2004-08-28T07:18:43Z</time>
            </trkpt>
            <trkpt lon="101.010983" lat="13.218913">
                <ele>41.473999</ele>
                <time>2004-08-28T07:19:02Z</time>
            </trkpt>
            <trkpt lon="101.011734" lat="13.218956">
                <ele>41.954712</ele>
                <time>2004-08-28T07:19:20Z</time>
            </trkpt>
            <trkpt lon="101.012356" lat="13.218720">
                <ele>40.512817</ele>
                <time>2004-08-28T07:19:38Z</time>
            </trkpt>
            <trkpt lon="101.013064" lat="13.218377">
                <ele>39.551270</ele>
                <time>2004-08-28T07:19:57Z</time>
            </trkpt>
            <trkpt lon="101.013772" lat="13.218119">
                <ele>40.512817</ele>
                <time>2004-08-28T07:20:14Z</time>
            </trkpt>
            <trkpt lon="101.013901" lat="13.218076">
                <ele>40.993408</ele>
                <time>2004-08-28T07:20:17Z</time>
            </trkpt>
            <trkpt lon="101.014459" lat="13.217669">
                <ele>39.070679</ele>
                <time>2004-08-28T07:20:32Z</time>
            </trkpt>
            <trkpt lon="101.015124" lat="13.217325">
                <ele>39.070679</ele>
                <time>2004-08-28T07:20:49Z</time>
            </trkpt>
            <trkpt lon="101.015661" lat="13.217325">
                <ele>42.916016</ele>
                <time>2004-08-28T07:21:05Z</time>
            </trkpt>
            <trkpt lon="101.016262" lat="13.217411">
                <ele>45.319214</ele>
                <time>2004-08-28T07:21:20Z</time>
            </trkpt>
            <trkpt lon="101.017270" lat="13.217454">
                <ele>48.683960</ele>
                <time>2004-08-28T07:21:45Z</time>
            </trkpt>
            <trkpt lon="101.017807" lat="13.217454">
                <ele>50.125977</ele>
                <time>2004-08-28T07:21:58Z</time>
            </trkpt>
            <trkpt lon="101.017978" lat="13.217626">
                <ele>51.087158</ele>
                <time>2004-08-28T07:22:05Z</time>
            </trkpt>
            <trkpt lon="101.018150" lat="13.218076">
                <ele>51.567871</ele>
                <time>2004-08-28T07:22:18Z</time>
            </trkpt>
            <trkpt lon="101.018364" lat="13.218656">
                <ele>52.529175</ele>
                <time>2004-08-28T07:22:34Z</time>
            </trkpt>
            <trkpt lon="101.018686" lat="13.219557">
                <ele>52.529175</ele>
                <time>2004-08-28T07:22:56Z</time>
            </trkpt>
            <trkpt lon="101.018879" lat="13.220072">
                <ele>52.529175</ele>
                <time>2004-08-28T07:23:12Z</time>
            </trkpt>
            <trkpt lon="101.019030" lat="13.220458">
                <ele>51.087158</ele>
                <time>2004-08-28T07:23:30Z</time>
            </trkpt>
            <trkpt lon="101.019051" lat="13.220608">
                <ele>50.606567</ele>
                <time>2004-08-28T07:23:50Z</time>
            </trkpt>
            <trkpt lon="101.019266" lat="13.221166">
                <ele>51.087158</ele>
                <time>2004-08-28T07:24:05Z</time>
            </trkpt>
            <trkpt lon="101.019309" lat="13.221209">
                <ele>51.087158</ele>
                <time>2004-08-28T07:24:14Z</time>
            </trkpt>
            <trkpt lon="101.019309" lat="13.221209">
                <ele>50.606567</ele>
                <time>2004-08-28T07:24:17Z</time>
            </trkpt>
            <trkpt lon="101.019201" lat="13.220909">
                <ele>51.567871</ele>
                <time>2004-08-28T07:24:32Z</time>
            </trkpt>
            <trkpt lon="101.019094" lat="13.220673">
                <ele>52.048584</ele>
                <time>2004-08-28T07:24:44Z</time>
            </trkpt>
            <trkpt lon="101.019094" lat="13.220651">
                <ele>53.490479</ele>
                <time>2004-08-28T07:25:16Z</time>
            </trkpt>
            <trkpt lon="101.019008" lat="13.220415">
                <ele>52.048584</ele>
                <time>2004-08-28T07:25:46Z</time>
            </trkpt>
            <trkpt lon="101.018772" lat="13.219771">
                <ele>52.529175</ele>
                <time>2004-08-28T07:26:05Z</time>
            </trkpt>
            <trkpt lon="101.018772" lat="13.219686">
                <ele>51.567871</ele>
                <time>2004-08-28T07:26:09Z</time>
            </trkpt>
            <trkpt lon="101.019051" lat="13.219643">
                <ele>51.087158</ele>
                <time>2004-08-28T07:26:26Z</time>
            </trkpt>
            <trkpt lon="101.019266" lat="13.219621">
                <ele>51.087158</ele>
                <time>2004-08-28T07:26:41Z</time>
            </trkpt>
            <trkpt lon="101.019244" lat="13.219621">
                <ele>51.087158</ele>
                <time>2004-08-28T07:26:58Z</time>
            </trkpt>
            <trkpt lon="101.019201" lat="13.219621">
                <ele>51.087158</ele>
                <time>2004-08-28T07:27:02Z</time>
            </trkpt>
            <trkpt lon="101.018772" lat="13.219686">
                <ele>50.606567</ele>
                <time>2004-08-28T07:27:22Z</time>
            </trkpt>
            <trkpt lon="101.018751" lat="13.219686">
                <ele>50.125977</ele>
                <time>2004-08-28T07:27:23Z</time>
            </trkpt>
            <trkpt lon="101.018729" lat="13.219621">
                <ele>50.606567</ele>
                <time>2004-08-28T07:27:27Z</time>
            </trkpt>
            <trkpt lon="101.018643" lat="13.219450">
                <ele>50.125977</ele>
                <time>2004-08-28T07:27:43Z</time>
            </trkpt>
            <trkpt lon="101.018579" lat="13.219235">
                <ele>50.606567</ele>
                <time>2004-08-28T07:28:02Z</time>
            </trkpt>
            <trkpt lon="101.018558" lat="13.219149">
                <ele>51.087158</ele>
                <time>2004-08-28T07:28:04Z</time>
            </trkpt>
            <trkpt lon="101.018515" lat="13.219085">
                <ele>51.087158</ele>
                <time>2004-08-28T07:28:06Z</time>
            </trkpt>
            <trkpt lon="101.018214" lat="13.218269">
                <ele>51.567871</ele>
                <time>2004-08-28T07:28:25Z</time>
            </trkpt>
            <trkpt lon="101.017978" lat="13.217669">
                <ele>51.567871</ele>
                <time>2004-08-28T07:28:41Z</time>
            </trkpt>
            <trkpt lon="101.017957" lat="13.217497">
                <ele>51.567871</ele>
                <time>2004-08-28T07:28:47Z</time>
            </trkpt>
            <trkpt lon="101.018322" lat="13.217497">
                <ele>50.606567</ele>
                <time>2004-08-28T07:28:57Z</time>
            </trkpt>
            <trkpt lon="101.019180" lat="13.217583">
                <ele>49.645264</ele>
                <time>2004-08-28T07:29:15Z</time>
            </trkpt>
            <trkpt lon="101.019738" lat="13.217604">
                <ele>48.203369</ele>
                <time>2004-08-28T07:29:26Z</time>
            </trkpt>
            <trkpt lon="101.019866" lat="13.217604">
                <ele>48.203369</ele>
                <time>2004-08-28T07:29:28Z</time>
            </trkpt>
            <trkpt lon="101.020918" lat="13.217583">
                <ele>46.280640</ele>
                <time>2004-08-28T07:29:46Z</time>
            </trkpt>
            <trkpt lon="101.021240" lat="13.217518">
                <ele>46.761230</ele>
                <time>2004-08-28T07:29:52Z</time>
            </trkpt>
            <trkpt lon="101.021369" lat="13.217583">
                <ele>46.761230</ele>
                <time>2004-08-28T07:29:55Z</time>
            </trkpt>
            <trkpt lon="101.022098" lat="13.218033">
                <ele>47.722534</ele>
                <time>2004-08-28T07:30:12Z</time>
            </trkpt>
            <trkpt lon="101.022356" lat="13.218184">
                <ele>48.203369</ele>
                <time>2004-08-28T07:30:19Z</time>
            </trkpt>
            <trkpt lon="101.023064" lat="13.218205">
                <ele>49.645264</ele>
                <time>2004-08-28T07:30:36Z</time>
            </trkpt>
            <trkpt lon="101.023815" lat="13.218076">
                <ele>51.087158</ele>
                <time>2004-08-28T07:30:56Z</time>
            </trkpt>
            <trkpt lon="101.024179" lat="13.218076">
                <ele>51.567871</ele>
                <time>2004-08-28T07:31:07Z</time>
            </trkpt>
            <trkpt lon="101.024501" lat="13.218505">
                <ele>53.009766</ele>
                <time>2004-08-28T07:31:22Z</time>
            </trkpt>
            <trkpt lon="101.024973" lat="13.219020">
                <ele>55.413086</ele>
                <time>2004-08-28T07:31:40Z</time>
            </trkpt>
            <trkpt lon="101.025360" lat="13.219128">
                <ele>56.374512</ele>
                <time>2004-08-28T07:31:50Z</time>
            </trkpt>
            <trkpt lon="101.025918" lat="13.219278">
                <ele>55.893799</ele>
                <time>2004-08-28T07:32:04Z</time>
            </trkpt>
            <trkpt lon="101.026433" lat="13.219278">
                <ele>55.413086</ele>
                <time>2004-08-28T07:32:17Z</time>
            </trkpt>
            <trkpt lon="101.026840" lat="13.219235">
                <ele>57.816528</ele>
                <time>2004-08-28T07:32:30Z</time>
            </trkpt>
            <trkpt lon="101.027248" lat="13.219192">
                <ele>57.335815</ele>
                <time>2004-08-28T07:32:44Z</time>
            </trkpt>
            <trkpt lon="101.027763" lat="13.219192">
                <ele>57.816528</ele>
                <time>2004-08-28T07:32:59Z</time>
            </trkpt>
            <trkpt lon="101.028235" lat="13.219364">
                <ele>58.777710</ele>
                <time>2004-08-28T07:33:15Z</time>
            </trkpt>
            <trkpt lon="101.028621" lat="13.219750">
                <ele>61.181030</ele>
                <time>2004-08-28T07:33:32Z</time>
            </trkpt>
            <trkpt lon="101.028922" lat="13.219879">
                <ele>62.142334</ele>
                <time>2004-08-28T07:33:44Z</time>
            </trkpt>
            <trkpt lon="101.029201" lat="13.220115">
                <ele>64.545654</ele>
                <time>2004-08-28T07:34:00Z</time>
            </trkpt>
            <trkpt lon="101.029286" lat="13.220093">
                <ele>65.026367</ele>
                <time>2004-08-28T07:34:05Z</time>
            </trkpt>
            <trkpt lon="101.029565" lat="13.219922">
                <ele>64.065063</ele>
                <time>2004-08-28T07:34:20Z</time>
            </trkpt>
            <trkpt lon="101.029887" lat="13.219578">
                <ele>63.103638</ele>
                <time>2004-08-28T07:34:34Z</time>
            </trkpt>
            <trkpt lon="101.030295" lat="13.219342">
                <ele>62.142334</ele>
                <time>2004-08-28T07:34:47Z</time>
            </trkpt>
            <trkpt lon="101.030424" lat="13.219256">
                <ele>62.142334</ele>
                <time>2004-08-28T07:34:51Z</time>
            </trkpt>
            <trkpt lon="101.030531" lat="13.219342">
                <ele>62.622925</ele>
                <time>2004-08-28T07:34:58Z</time>
            </trkpt>
            <trkpt lon="101.031024" lat="13.219535">
                <ele>64.545654</ele>
                <time>2004-08-28T07:35:15Z</time>
            </trkpt>
            <trkpt lon="101.031153" lat="13.219600">
                <ele>65.026367</ele>
                <time>2004-08-28T07:35:19Z</time>
            </trkpt>
            <trkpt lon="101.031475" lat="13.219750">
                <ele>67.429688</ele>
                <time>2004-08-28T07:35:31Z</time>
            </trkpt>
            <trkpt lon="101.031518" lat="13.219814">
                <ele>67.910278</ele>
                <time>2004-08-28T07:35:35Z</time>
            </trkpt>
            <trkpt lon="101.031711" lat="13.219814">
                <ele>66.948975</ele>
                <time>2004-08-28T07:35:47Z</time>
            </trkpt>
            <trkpt lon="101.031797" lat="13.219793">
                <ele>66.948975</ele>
                <time>2004-08-28T07:36:01Z</time>
            </trkpt>
            <trkpt lon="101.031883" lat="13.219728">
                <ele>66.468262</ele>
                <time>2004-08-28T07:36:18Z</time>
            </trkpt>
            <trkpt lon="101.031883" lat="13.219728">
                <ele>66.468262</ele>
                <time>2004-08-28T07:36:19Z</time>
            </trkpt>
            <trkpt lon="101.032012" lat="13.219793">
                <ele>68.390869</ele>
                <time>2004-08-28T07:36:34Z</time>
            </trkpt>
            <trkpt lon="101.032033" lat="13.219836">
                <ele>68.871582</ele>
                <time>2004-08-28T07:36:38Z</time>
            </trkpt>
            <trkpt lon="101.032248" lat="13.219879">
                <ele>71.274902</ele>
                <time>2004-08-28T07:36:54Z</time>
            </trkpt>
            <trkpt lon="101.032376" lat="13.219986">
                <ele>72.716919</ele>
                <time>2004-08-28T07:37:12Z</time>
            </trkpt>
            <trkpt lon="101.032526" lat="13.219922">
                <ele>74.639526</ele>
                <time>2004-08-28T07:37:34Z</time>
            </trkpt>
            <trkpt lon="101.032569" lat="13.219922">
                <ele>75.120239</ele>
                <time>2004-08-28T07:38:03Z</time>
            </trkpt>
            <trkpt lon="101.032634" lat="13.219922">
                <ele>74.158813</ele>
                <time>2004-08-28T07:38:08Z</time>
            </trkpt>
            <trkpt lon="101.032805" lat="13.219750">
                <ele>74.639526</ele>
                <time>2004-08-28T07:38:24Z</time>
            </trkpt>
            <trkpt lon="101.033020" lat="13.219492">
                <ele>76.081421</ele>
                <time>2004-08-28T07:38:43Z</time>
            </trkpt>
            <trkpt lon="101.033149" lat="13.218935">
                <ele>77.042847</ele>
                <time>2004-08-28T07:38:59Z</time>
            </trkpt>
            <trkpt lon="101.033213" lat="13.218355">
                <ele>74.158813</ele>
                <time>2004-08-28T07:39:12Z</time>
            </trkpt>
            <trkpt lon="101.033578" lat="13.218055">
                <ele>72.236206</ele>
                <time>2004-08-28T07:39:23Z</time>
            </trkpt>
            <trkpt lon="101.033835" lat="13.217733">
                <ele>72.716919</ele>
                <time>2004-08-28T07:39:31Z</time>
            </trkpt>
            <trkpt lon="101.033943" lat="13.217647">
                <ele>72.236206</ele>
                <time>2004-08-28T07:39:34Z</time>
            </trkpt>
            <trkpt lon="101.034436" lat="13.217304">
                <ele>70.794189</ele>
                <time>2004-08-28T07:39:46Z</time>
            </trkpt>
            <trkpt lon="101.034973" lat="13.216724">
                <ele>68.390869</ele>
                <time>2004-08-28T07:40:00Z</time>
            </trkpt>
            <trkpt lon="101.035402" lat="13.216403">
                <ele>67.429688</ele>
                <time>2004-08-28T07:40:10Z</time>
            </trkpt>
            <trkpt lon="101.035616" lat="13.216295">
                <ele>67.910278</ele>
                <time>2004-08-28T07:40:15Z</time>
            </trkpt>
            <trkpt lon="101.035767" lat="13.216252">
                <ele>67.910278</ele>
                <time>2004-08-28T07:40:18Z</time>
            </trkpt>
            <trkpt lon="101.036282" lat="13.216038">
                <ele>69.832886</ele>
                <time>2004-08-28T07:40:33Z</time>
            </trkpt>
            <trkpt lon="101.036839" lat="13.215973">
                <ele>71.274902</ele>
                <time>2004-08-28T07:40:48Z</time>
            </trkpt>
            <trkpt lon="101.037376" lat="13.215823">
                <ele>68.871582</ele>
                <time>2004-08-28T07:41:01Z</time>
            </trkpt>
            <trkpt lon="101.037505" lat="13.215652">
                <ele>67.910278</ele>
                <time>2004-08-28T07:41:06Z</time>
            </trkpt>
            <trkpt lon="101.037698" lat="13.215394">
                <ele>65.507080</ele>
                <time>2004-08-28T07:41:13Z</time>
            </trkpt>
            <trkpt lon="101.037805" lat="13.215287">
                <ele>64.065063</ele>
                <time>2004-08-28T07:41:16Z</time>
            </trkpt>
            <trkpt lon="101.038234" lat="13.214836">
                <ele>58.297119</ele>
                <time>2004-08-28T07:41:27Z</time>
            </trkpt>
            <trkpt lon="101.038406" lat="13.214772">
                <ele>58.297119</ele>
                <time>2004-08-28T07:41:32Z</time>
            </trkpt>
            <trkpt lon="101.038792" lat="13.214900">
                <ele>58.777710</ele>
                <time>2004-08-28T07:41:41Z</time>
            </trkpt>
            <trkpt lon="101.039221" lat="13.215179">
                <ele>61.661743</ele>
                <time>2004-08-28T07:41:57Z</time>
            </trkpt>
            <trkpt lon="101.039479" lat="13.215201">
                <ele>61.661743</ele>
                <time>2004-08-28T07:42:09Z</time>
            </trkpt>
            <trkpt lon="101.039672" lat="13.214900">
                <ele>63.103638</ele>
                <time>2004-08-28T07:42:17Z</time>
            </trkpt>
            <trkpt lon="101.039865" lat="13.214858">
                <ele>63.103638</ele>
                <time>2004-08-28T07:42:22Z</time>
            </trkpt>
            <trkpt lon="101.040294" lat="13.214922">
                <ele>62.622925</ele>
                <time>2004-08-28T07:42:31Z</time>
            </trkpt>
            <trkpt lon="101.040595" lat="13.215222">
                <ele>61.661743</ele>
                <time>2004-08-28T07:42:41Z</time>
            </trkpt>
            <trkpt lon="101.040401" lat="13.215566">
                <ele>62.142334</ele>
                <time>2004-08-28T07:42:51Z</time>
            </trkpt>
            <trkpt lon="101.040337" lat="13.215587">
                <ele>62.142334</ele>
                <time>2004-08-28T07:42:53Z</time>
            </trkpt>
            <trkpt lon="101.039844" lat="13.215823">
                <ele>63.103638</ele>
                <time>2004-08-28T07:43:10Z</time>
            </trkpt>
            <trkpt lon="101.039715" lat="13.216188">
                <ele>65.026367</ele>
                <time>2004-08-28T07:43:23Z</time>
            </trkpt>
            <trkpt lon="101.039822" lat="13.216660">
                <ele>65.026367</ele>
                <time>2004-08-28T07:43:37Z</time>
            </trkpt>
            <trkpt lon="101.039822" lat="13.216660">
                <ele>65.026367</ele>
                <time>2004-08-28T07:43:38Z</time>
            </trkpt>
            <trkpt lon="101.039779" lat="13.216681">
                <ele>65.026367</ele>
                <time>2004-08-28T07:43:48Z</time>
            </trkpt>
            <trkpt lon="101.039543" lat="13.216853">
                <ele>66.948975</ele>
                <time>2004-08-28T07:44:02Z</time>
            </trkpt>
            <trkpt lon="101.039457" lat="13.217282">
                <ele>66.468262</ele>
                <time>2004-08-28T07:44:17Z</time>
            </trkpt>
            <trkpt lon="101.039221" lat="13.217583">
                <ele>67.429688</ele>
                <time>2004-08-28T07:44:28Z</time>
            </trkpt>
            <trkpt lon="101.038942" lat="13.217862">
                <ele>69.352295</ele>
                <time>2004-08-28T07:44:42Z</time>
            </trkpt>
            <trkpt lon="101.038878" lat="13.217969">
                <ele>69.352295</ele>
                <time>2004-08-28T07:44:48Z</time>
            </trkpt>
            <trkpt lon="101.038878" lat="13.218162">
                <ele>68.871582</ele>
                <time>2004-08-28T07:44:57Z</time>
            </trkpt>
            <trkpt lon="101.038964" lat="13.218205">
                <ele>69.832886</ele>
                <time>2004-08-28T07:45:02Z</time>
            </trkpt>
            <trkpt lon="101.039071" lat="13.218377">
                <ele>71.274902</ele>
                <time>2004-08-28T07:45:16Z</time>
            </trkpt>
            <trkpt lon="101.039114" lat="13.218398">
                <ele>71.755493</ele>
                <time>2004-08-28T07:45:20Z</time>
            </trkpt>
            <trkpt lon="101.039221" lat="13.218548">
                <ele>74.639526</ele>
                <time>2004-08-28T07:45:36Z</time>
            </trkpt>
            <trkpt lon="101.039221" lat="13.218613">
                <ele>76.562134</ele>
                <time>2004-08-28T07:46:00Z</time>
            </trkpt>
            <trkpt lon="101.039221" lat="13.218763">
                <ele>78.484741</ele>
                <time>2004-08-28T07:46:25Z</time>
            </trkpt>
            <trkpt lon="101.039264" lat="13.219128">
                <ele>78.484741</ele>
                <time>2004-08-28T07:46:38Z</time>
            </trkpt>
            <trkpt lon="101.039286" lat="13.219256">
                <ele>78.004028</ele>
                <time>2004-08-28T07:46:42Z</time>
            </trkpt>
            <trkpt lon="101.039393" lat="13.219278">
                <ele>76.562134</ele>
                <time>2004-08-28T07:46:47Z</time>
            </trkpt>
            <trkpt lon="101.039586" lat="13.219299">
                <ele>75.600830</ele>
                <time>2004-08-28T07:46:55Z</time>
            </trkpt>
            <trkpt lon="101.039629" lat="13.219278">
                <ele>74.639526</ele>
                <time>2004-08-28T07:47:05Z</time>
            </trkpt>
            <trkpt lon="101.039736" lat="13.219299">
                <ele>74.639526</ele>
                <time>2004-08-28T07:48:58Z</time>
            </trkpt>
            <trkpt lon="101.040294" lat="13.219321">
                <ele>73.678223</ele>
                <time>2004-08-28T07:49:15Z</time>
            </trkpt>
            <trkpt lon="101.040466" lat="13.219535">
                <ele>73.678223</ele>
                <time>2004-08-28T07:49:25Z</time>
            </trkpt>
            <trkpt lon="101.040423" lat="13.220093">
                <ele>76.562134</ele>
                <time>2004-08-28T07:49:48Z</time>
            </trkpt>
            <trkpt lon="101.040273" lat="13.220479">
                <ele>76.562134</ele>
                <time>2004-08-28T07:50:04Z</time>
            </trkpt>
            <trkpt lon="101.040144" lat="13.220952">
                <ele>76.562134</ele>
                <time>2004-08-28T07:50:19Z</time>
            </trkpt>
            <trkpt lon="101.040337" lat="13.221252">
                <ele>76.562134</ele>
                <time>2004-08-28T07:50:31Z</time>
            </trkpt>
            <trkpt lon="101.040509" lat="13.221638">
                <ele>78.004028</ele>
                <time>2004-08-28T07:50:44Z</time>
            </trkpt>
            <trkpt lon="101.040444" lat="13.222003">
                <ele>78.484741</ele>
                <time>2004-08-28T07:50:57Z</time>
            </trkpt>
            <trkpt lon="101.040316" lat="13.222518">
                <ele>80.888184</ele>
                <time>2004-08-28T07:51:15Z</time>
            </trkpt>
            <trkpt lon="101.040595" lat="13.222668">
                <ele>81.849365</ele>
                <time>2004-08-28T07:51:25Z</time>
            </trkpt>
            <trkpt lon="101.040959" lat="13.222861">
                <ele>82.330078</ele>
                <time>2004-08-28T07:51:39Z</time>
            </trkpt>
            <trkpt lon="101.041002" lat="13.222797">
                <ele>81.368774</ele>
                <time>2004-08-28T07:51:43Z</time>
            </trkpt>
            <trkpt lon="101.041088" lat="13.222132">
                <ele>78.484741</ele>
                <time>2004-08-28T07:51:56Z</time>
            </trkpt>
            <trkpt lon="101.041303" lat="13.221037">
                <ele>74.639526</ele>
                <time>2004-08-28T07:52:12Z</time>
            </trkpt>
            <trkpt lon="101.041667" lat="13.220115">
                <ele>77.042847</ele>
                <time>2004-08-28T07:52:31Z</time>
            </trkpt>
            <trkpt lon="101.042011" lat="13.219407">
                <ele>73.678223</ele>
                <time>2004-08-28T07:52:47Z</time>
            </trkpt>
            <trkpt lon="101.042204" lat="13.219149">
                <ele>73.678223</ele>
                <time>2004-08-28T07:52:52Z</time>
            </trkpt>
            <trkpt lon="101.042612" lat="13.218784">
                <ele>71.274902</ele>
                <time>2004-08-28T07:53:01Z</time>
            </trkpt>
            <trkpt lon="101.042697" lat="13.218677">
                <ele>70.794189</ele>
                <time>2004-08-28T07:53:03Z</time>
            </trkpt>
            <trkpt lon="101.042655" lat="13.218312">
                <ele>70.794189</ele>
                <time>2004-08-28T07:53:09Z</time>
            </trkpt>
            <trkpt lon="101.041882" lat="13.217239">
                <ele>68.390869</ele>
                <time>2004-08-28T07:53:29Z</time>
            </trkpt>
            <trkpt lon="101.041260" lat="13.216424">
                <ele>65.026367</ele>
                <time>2004-08-28T07:53:44Z</time>
            </trkpt>
            <trkpt lon="101.041195" lat="13.216295">
                <ele>64.545654</ele>
                <time>2004-08-28T07:53:46Z</time>
            </trkpt>
            <trkpt lon="101.041152" lat="13.216166">
                <ele>64.545654</ele>
                <time>2004-08-28T07:53:48Z</time>
            </trkpt>
            <trkpt lon="101.041152" lat="13.215630">
                <ele>64.545654</ele>
                <time>2004-08-28T07:53:55Z</time>
            </trkpt>
            <trkpt lon="101.041195" lat="13.215179">
                <ele>64.065063</ele>
                <time>2004-08-28T07:54:02Z</time>
            </trkpt>
            <trkpt lon="101.041131" lat="13.214922">
                <ele>63.584351</ele>
                <time>2004-08-28T07:54:06Z</time>
            </trkpt>
            <trkpt lon="101.040680" lat="13.214300">
                <ele>61.661743</ele>
                <time>2004-08-28T07:54:17Z</time>
            </trkpt>
            <trkpt lon="101.040251" lat="13.213913">
                <ele>62.622925</ele>
                <time>2004-08-28T07:54:26Z</time>
            </trkpt>
            <trkpt lon="101.040208" lat="13.213613">
                <ele>63.103638</ele>
                <time>2004-08-28T07:54:32Z</time>
            </trkpt>
            <trkpt lon="101.040316" lat="13.213313">
                <ele>62.622925</ele>
                <time>2004-08-28T07:54:38Z</time>
            </trkpt>
            <trkpt lon="101.040337" lat="13.213227">
                <ele>63.103638</ele>
                <time>2004-08-28T07:54:40Z</time>
            </trkpt>
            <trkpt lon="101.040745" lat="13.212948">
                <ele>63.584351</ele>
                <time>2004-08-28T07:54:50Z</time>
            </trkpt>
            <trkpt lon="101.041024" lat="13.212755">
                <ele>65.507080</ele>
                <time>2004-08-28T07:55:00Z</time>
            </trkpt>
            <trkpt lon="101.041045" lat="13.212690">
                <ele>65.507080</ele>
                <time>2004-08-28T07:55:03Z</time>
            </trkpt>
            <trkpt lon="101.040788" lat="13.212261">
                <ele>63.584351</ele>
                <time>2004-08-28T07:55:14Z</time>
            </trkpt>
            <trkpt lon="101.040316" lat="13.211360">
                <ele>61.661743</ele>
                <time>2004-08-28T07:55:30Z</time>
            </trkpt>
            <trkpt lon="101.040080" lat="13.210888">
                <ele>64.545654</ele>
                <time>2004-08-28T07:55:43Z</time>
            </trkpt>
            <trkpt lon="101.039758" lat="13.210416">
                <ele>65.987671</ele>
                <time>2004-08-28T07:56:00Z</time>
            </trkpt>
            <trkpt lon="101.039736" lat="13.210394">
                <ele>66.468262</ele>
                <time>2004-08-28T07:56:01Z</time>
            </trkpt>
            <trkpt lon="101.039522" lat="13.210244">
                <ele>65.987671</ele>
                <time>2004-08-28T07:56:07Z</time>
            </trkpt>
            <trkpt lon="101.038685" lat="13.210030">
                <ele>64.545654</ele>
                <time>2004-08-28T07:56:24Z</time>
            </trkpt>
            <trkpt lon="101.037419" lat="13.209922">
                <ele>62.142334</ele>
                <time>2004-08-28T07:56:46Z</time>
            </trkpt>
            <trkpt lon="101.036496" lat="13.209901">
                <ele>60.219727</ele>
                <time>2004-08-28T07:57:03Z</time>
            </trkpt>
            <trkpt lon="101.036367" lat="13.209901">
                <ele>60.219727</ele>
                <time>2004-08-28T07:57:12Z</time>
            </trkpt>
            <trkpt lon="101.036367" lat="13.209922">
                <ele>61.661743</ele>
                <time>2004-08-28T07:57:33Z</time>
            </trkpt>
            <trkpt lon="101.036367" lat="13.209922">
                <ele>62.142334</ele>
                <time>2004-08-28T08:16:36Z</time>
            </trkpt>
            <trkpt lon="101.036389" lat="13.209944">
                <ele>60.700317</ele>
                <time>2004-08-28T08:22:12Z</time>
            </trkpt>
            <trkpt lon="101.036475" lat="13.209965">
                <ele>60.700317</ele>
                <time>2004-08-28T08:22:19Z</time>
            </trkpt>
            <trkpt lon="101.037054" lat="13.209965">
                <ele>63.103638</ele>
                <time>2004-08-28T08:22:41Z</time>
            </trkpt>
            <trkpt lon="101.037719" lat="13.209987">
                <ele>65.026367</ele>
                <time>2004-08-28T08:23:01Z</time>
            </trkpt>
            <trkpt lon="101.038535" lat="13.210073">
                <ele>65.987671</ele>
                <time>2004-08-28T08:23:23Z</time>
            </trkpt>
            <trkpt lon="101.039457" lat="13.210180">
                <ele>66.948975</ele>
                <time>2004-08-28T08:23:45Z</time>
            </trkpt>
            <trkpt lon="101.040058" lat="13.210051">
                <ele>67.429688</ele>
                <time>2004-08-28T08:23:59Z</time>
            </trkpt>
            <trkpt lon="101.040852" lat="13.209708">
                <ele>67.910278</ele>
                <time>2004-08-28T08:24:20Z</time>
            </trkpt>
            <trkpt lon="101.041217" lat="13.209665">
                <ele>68.390869</ele>
                <time>2004-08-28T08:24:29Z</time>
            </trkpt>
            <trkpt lon="101.041882" lat="13.209751">
                <ele>69.352295</ele>
                <time>2004-08-28T08:24:45Z</time>
            </trkpt>
            <trkpt lon="101.042483" lat="13.209858">
                <ele>70.313477</ele>
                <time>2004-08-28T08:25:02Z</time>
            </trkpt>
            <trkpt lon="101.043105" lat="13.209858">
                <ele>71.274902</ele>
                <time>2004-08-28T08:25:20Z</time>
            </trkpt>
            <trkpt lon="101.043706" lat="13.210158">
                <ele>72.236206</ele>
                <time>2004-08-28T08:25:38Z</time>
            </trkpt>
            <trkpt lon="101.044371" lat="13.210158">
                <ele>73.678223</ele>
                <time>2004-08-28T08:25:56Z</time>
            </trkpt>
            <trkpt lon="101.044478" lat="13.210094">
                <ele>73.678223</ele>
                <time>2004-08-28T08:26:00Z</time>
            </trkpt>
            <trkpt lon="101.044436" lat="13.209643">
                <ele>71.755493</ele>
                <time>2004-08-28T08:26:11Z</time>
            </trkpt>
            <trkpt lon="101.044414" lat="13.209407">
                <ele>71.274902</ele>
                <time>2004-08-28T08:26:16Z</time>
            </trkpt>
            <trkpt lon="101.044414" lat="13.209257">
                <ele>71.274902</ele>
                <time>2004-08-28T08:26:19Z</time>
            </trkpt>
            <trkpt lon="101.044371" lat="13.209021">
                <ele>72.236206</ele>
                <time>2004-08-28T08:26:25Z</time>
            </trkpt>
            <trkpt lon="101.044307" lat="13.208570">
                <ele>71.755493</ele>
                <time>2004-08-28T08:26:38Z</time>
            </trkpt>
            <trkpt lon="101.044242" lat="13.207970">
                <ele>72.236206</ele>
                <time>2004-08-28T08:26:56Z</time>
            </trkpt>
            <trkpt lon="101.044178" lat="13.207626">
                <ele>73.197632</ele>
                <time>2004-08-28T08:27:12Z</time>
            </trkpt>
            <trkpt lon="101.044178" lat="13.207433">
                <ele>73.678223</ele>
                <time>2004-08-28T08:27:26Z</time>
            </trkpt>
            <trkpt lon="101.044114" lat="13.207068">
                <ele>74.639526</ele>
                <time>2004-08-28T08:27:43Z</time>
            </trkpt>
            <trkpt lon="101.044049" lat="13.206532">
                <ele>74.158813</ele>
                <time>2004-08-28T08:28:02Z</time>
            </trkpt>
            <trkpt lon="101.044028" lat="13.206360">
                <ele>74.158813</ele>
                <time>2004-08-28T08:28:12Z</time>
            </trkpt>
            <trkpt lon="101.044006" lat="13.206189">
                <ele>73.197632</ele>
                <time>2004-08-28T08:28:25Z</time>
            </trkpt>
            <trkpt lon="101.043985" lat="13.206103">
                <ele>72.716919</ele>
                <time>2004-08-28T08:28:39Z</time>
            </trkpt>
            <trkpt lon="101.043963" lat="13.205867">
                <ele>73.197632</ele>
                <time>2004-08-28T08:29:04Z</time>
            </trkpt>
            <trkpt lon="101.043963" lat="13.205652">
                <ele>73.678223</ele>
                <time>2004-08-28T08:29:24Z</time>
            </trkpt>
            <trkpt lon="101.043942" lat="13.205373">
                <ele>74.639526</ele>
                <time>2004-08-28T08:29:47Z</time>
            </trkpt>
            <trkpt lon="101.043899" lat="13.205137">
                <ele>75.120239</ele>
                <time>2004-08-28T08:30:08Z</time>
            </trkpt>
            <trkpt lon="101.043856" lat="13.204901">
                <ele>75.600830</ele>
                <time>2004-08-28T08:30:27Z</time>
            </trkpt>
            <trkpt lon="101.043813" lat="13.204622">
                <ele>76.562134</ele>
                <time>2004-08-28T08:30:50Z</time>
            </trkpt>
            <trkpt lon="101.043727" lat="13.204279">
                <ele>76.081421</ele>
                <time>2004-08-28T08:31:04Z</time>
            </trkpt>
            <trkpt lon="101.043663" lat="13.203807">
                <ele>76.081421</ele>
                <time>2004-08-28T08:31:20Z</time>
            </trkpt>
            <trkpt lon="101.043642" lat="13.203592">
                <ele>75.600830</ele>
                <time>2004-08-28T08:31:33Z</time>
            </trkpt>
            <trkpt lon="101.043642" lat="13.203528">
                <ele>75.600830</ele>
                <time>2004-08-28T08:31:44Z</time>
            </trkpt>
            <trkpt lon="101.043620" lat="13.203485">
                <ele>75.600830</ele>
                <time>2004-08-28T08:32:02Z</time>
            </trkpt>
            <trkpt lon="101.043599" lat="13.203356">
                <ele>75.600830</ele>
                <time>2004-08-28T08:32:17Z</time>
            </trkpt>
            <trkpt lon="101.043599" lat="13.203292">
                <ele>76.081421</ele>
                <time>2004-08-28T08:32:33Z</time>
            </trkpt>
            <trkpt lon="101.043577" lat="13.203228">
                <ele>76.081421</ele>
                <time>2004-08-28T08:32:49Z</time>
            </trkpt>
            <trkpt lon="101.043556" lat="13.203163">
                <ele>75.600830</ele>
                <time>2004-08-28T08:33:07Z</time>
            </trkpt>
            <trkpt lon="101.043556" lat="13.203034">
                <ele>73.678223</ele>
                <time>2004-08-28T08:33:31Z</time>
            </trkpt>
            <trkpt lon="101.043556" lat="13.202949">
                <ele>74.158813</ele>
                <time>2004-08-28T08:33:44Z</time>
            </trkpt>
            <trkpt lon="101.043577" lat="13.202970">
                <ele>73.678223</ele>
                <time>2004-08-28T08:33:53Z</time>
            </trkpt>
            <trkpt lon="101.043727" lat="13.202991">
                <ele>75.600830</ele>
                <time>2004-08-28T08:34:07Z</time>
            </trkpt>
            <trkpt lon="101.044114" lat="13.202927">
                <ele>78.965454</ele>
                <time>2004-08-28T08:34:24Z</time>
            </trkpt>
            <trkpt lon="101.044822" lat="13.202841">
                <ele>81.368774</ele>
                <time>2004-08-28T08:34:50Z</time>
            </trkpt>
            <trkpt lon="101.045508" lat="13.202734">
                <ele>81.849365</ele>
                <time>2004-08-28T08:35:11Z</time>
            </trkpt>
            <trkpt lon="101.045637" lat="13.202755">
                <ele>82.330078</ele>
                <time>2004-08-28T08:35:17Z</time>
            </trkpt>
            <trkpt lon="101.046066" lat="13.202691">
                <ele>83.291382</ele>
                <time>2004-08-28T08:35:35Z</time>
            </trkpt>
            <trkpt lon="101.046453" lat="13.202670">
                <ele>84.252686</ele>
                <time>2004-08-28T08:35:54Z</time>
            </trkpt>
            <trkpt lon="101.046689" lat="13.202670">
                <ele>85.694580</ele>
                <time>2004-08-28T08:36:10Z</time>
            </trkpt>
            <trkpt lon="101.046796" lat="13.202670">
                <ele>85.694580</ele>
                <time>2004-08-28T08:36:23Z</time>
            </trkpt>
            <trkpt lon="101.046882" lat="13.202670">
                <ele>85.213989</ele>
                <time>2004-08-28T08:36:33Z</time>
            </trkpt>
            <trkpt lon="101.046925" lat="13.202670">
                <ele>86.175293</ele>
                <time>2004-08-28T08:36:40Z</time>
            </trkpt>
            <trkpt lon="101.047161" lat="13.202648">
                <ele>86.656006</ele>
                <time>2004-08-28T08:36:58Z</time>
            </trkpt>
            <trkpt lon="101.047204" lat="13.202648">
                <ele>87.136597</ele>
                <time>2004-08-28T08:37:11Z</time>
            </trkpt>
            <trkpt lon="101.047289" lat="13.202648">
                <ele>88.578735</ele>
                <time>2004-08-28T08:37:46Z</time>
            </trkpt>
            <trkpt lon="101.047440" lat="13.202627">
                <ele>88.578735</ele>
                <time>2004-08-28T08:38:01Z</time>
            </trkpt>
            <trkpt lon="101.047654" lat="13.202605">
                <ele>88.098022</ele>
                <time>2004-08-28T08:38:16Z</time>
            </trkpt>
            <trkpt lon="101.047761" lat="13.202605">
                <ele>88.098022</ele>
                <time>2004-08-28T08:38:30Z</time>
            </trkpt>
            <trkpt lon="101.047783" lat="13.202605">
                <ele>88.098022</ele>
                <time>2004-08-28T08:38:31Z</time>
            </trkpt>
            <trkpt lon="101.047890" lat="13.202541">
                <ele>88.578735</ele>
                <time>2004-08-28T08:38:42Z</time>
            </trkpt>
            <trkpt lon="101.047869" lat="13.202262">
                <ele>88.098022</ele>
                <time>2004-08-28T08:38:58Z</time>
            </trkpt>
            <trkpt lon="101.047869" lat="13.202176">
                <ele>88.098022</ele>
                <time>2004-08-28T08:39:02Z</time>
            </trkpt>
            <trkpt lon="101.048019" lat="13.202090">
                <ele>87.617188</ele>
                <time>2004-08-28T08:39:16Z</time>
            </trkpt>
            <trkpt lon="101.047826" lat="13.201833">
                <ele>87.617188</ele>
                <time>2004-08-28T08:39:33Z</time>
            </trkpt>
            <trkpt lon="101.047590" lat="13.201318">
                <ele>87.136597</ele>
                <time>2004-08-28T08:39:50Z</time>
            </trkpt>
            <trkpt lon="101.047225" lat="13.200545">
                <ele>85.694580</ele>
                <time>2004-08-28T08:40:14Z</time>
            </trkpt>
            <trkpt lon="101.046989" lat="13.200030">
                <ele>88.098022</ele>
                <time>2004-08-28T08:40:29Z</time>
            </trkpt>
            <trkpt lon="101.046624" lat="13.199344">
                <ele>88.098022</ele>
                <time>2004-08-28T08:40:47Z</time>
            </trkpt>
            <trkpt lon="101.046495" lat="13.199043">
                <ele>88.098022</ele>
                <time>2004-08-28T08:41:02Z</time>
            </trkpt>
            <trkpt lon="101.046367" lat="13.198850">
                <ele>90.020630</ele>
                <time>2004-08-28T08:41:21Z</time>
            </trkpt>
            <trkpt lon="101.046302" lat="13.198743">
                <ele>91.943237</ele>
                <time>2004-08-28T08:41:36Z</time>
            </trkpt>
            <trkpt lon="101.046238" lat="13.198636">
                <ele>93.865845</ele>
                <time>2004-08-28T08:41:53Z</time>
            </trkpt>
            <trkpt lon="101.046152" lat="13.198400">
                <ele>93.865845</ele>
                <time>2004-08-28T08:42:07Z</time>
            </trkpt>
            <trkpt lon="101.046023" lat="13.197885">
                <ele>90.501343</ele>
                <time>2004-08-28T08:42:26Z</time>
            </trkpt>
            <trkpt lon="101.045787" lat="13.197134">
                <ele>89.539917</ele>
                <time>2004-08-28T08:42:45Z</time>
            </trkpt>
            <trkpt lon="101.045766" lat="13.197091">
                <ele>90.020630</ele>
                <time>2004-08-28T08:42:46Z</time>
            </trkpt>
            <trkpt lon="101.045487" lat="13.196425">
                <ele>91.943237</ele>
                <time>2004-08-28T08:43:03Z</time>
            </trkpt>
            <trkpt lon="101.045208" lat="13.195589">
                <ele>91.943237</ele>
                <time>2004-08-28T08:43:22Z</time>
            </trkpt>
            <trkpt lon="101.045036" lat="13.194880">
                <ele>92.904541</ele>
                <time>2004-08-28T08:43:38Z</time>
            </trkpt>
            <trkpt lon="101.044736" lat="13.194451">
                <ele>89.059326</ele>
                <time>2004-08-28T08:43:51Z</time>
            </trkpt>
            <trkpt lon="101.044843" lat="13.194237">
                <ele>88.098022</ele>
                <time>2004-08-28T08:43:58Z</time>
            </trkpt>
            <trkpt lon="101.045272" lat="13.193657">
                <ele>85.213989</ele>
                <time>2004-08-28T08:44:17Z</time>
            </trkpt>
            <trkpt lon="101.045444" lat="13.193657">
                <ele>84.733398</ele>
                <time>2004-08-28T08:44:28Z</time>
            </trkpt>
            <trkpt lon="101.045723" lat="13.193851">
                <ele>84.733398</ele>
                <time>2004-08-28T08:44:41Z</time>
            </trkpt>
            <trkpt lon="101.046023" lat="13.194108">
                <ele>86.656006</ele>
                <time>2004-08-28T08:44:56Z</time>
            </trkpt>
            <trkpt lon="101.046238" lat="13.194301">
                <ele>87.136597</ele>
                <time>2004-08-28T08:45:11Z</time>
            </trkpt>
            <trkpt lon="101.046281" lat="13.194323">
                <ele>87.617188</ele>
                <time>2004-08-28T08:45:24Z</time>
            </trkpt>
            <trkpt lon="101.046453" lat="13.194408">
                <ele>87.617188</ele>
                <time>2004-08-28T08:45:41Z</time>
            </trkpt>
            <trkpt lon="101.046731" lat="13.194537">
                <ele>87.617188</ele>
                <time>2004-08-28T08:45:52Z</time>
            </trkpt>
            <trkpt lon="101.046753" lat="13.194516">
                <ele>87.617188</ele>
                <time>2004-08-28T08:45:55Z</time>
            </trkpt>
            <trkpt lon="101.046646" lat="13.194451">
                <ele>87.617188</ele>
                <time>2004-08-28T08:46:03Z</time>
            </trkpt>
            <trkpt lon="101.046324" lat="13.194280">
                <ele>88.578735</ele>
                <time>2004-08-28T08:46:19Z</time>
            </trkpt>
            <trkpt lon="101.046152" lat="13.194172">
                <ele>89.059326</ele>
                <time>2004-08-28T08:46:35Z</time>
            </trkpt>
            <trkpt lon="101.046131" lat="13.194151">
                <ele>89.059326</ele>
                <time>2004-08-28T08:46:44Z</time>
            </trkpt>
            <trkpt lon="101.046152" lat="13.193808">
                <ele>88.098022</ele>
                <time>2004-08-28T08:46:56Z</time>
            </trkpt>
            <trkpt lon="101.046238" lat="13.193142">
                <ele>87.617188</ele>
                <time>2004-08-28T08:47:14Z</time>
            </trkpt>
            <trkpt lon="101.046302" lat="13.192563">
                <ele>87.617188</ele>
                <time>2004-08-28T08:47:30Z</time>
            </trkpt>
            <trkpt lon="101.046345" lat="13.192070">
                <ele>87.136597</ele>
                <time>2004-08-28T08:47:46Z</time>
            </trkpt>
            <trkpt lon="101.050529" lat="13.191705">
                <ele>88.098022</ele>
                <time>2004-08-28T08:53:20Z</time>
            </trkpt>
            <trkpt lon="101.050508" lat="13.191683">
                <ele>89.059326</ele>
                <time>2004-08-28T08:53:26Z</time>
            </trkpt>
            <trkpt lon="101.050787" lat="13.191683">
                <ele>93.385132</ele>
                <time>2004-08-28T08:53:42Z</time>
            </trkpt>
            <trkpt lon="101.050766" lat="13.191683">
                <ele>94.827148</ele>
                <time>2004-08-28T08:53:56Z</time>
            </trkpt>
            <trkpt lon="101.051109" lat="13.191726">
                <ele>95.307739</ele>
                <time>2004-08-28T08:54:07Z</time>
            </trkpt>
            <trkpt lon="101.051474" lat="13.191876">
                <ele>95.307739</ele>
                <time>2004-08-28T08:54:17Z</time>
            </trkpt>
            <trkpt lon="101.052246" lat="13.192070">
                <ele>90.981934</ele>
                <time>2004-08-28T08:54:34Z</time>
            </trkpt>
            <trkpt lon="101.052675" lat="13.192091">
                <ele>90.501343</ele>
                <time>2004-08-28T08:54:42Z</time>
            </trkpt>
            <trkpt lon="101.053061" lat="13.192112">
                <ele>92.423950</ele>
                <time>2004-08-28T08:54:55Z</time>
            </trkpt>
            <trkpt lon="101.053126" lat="13.192091">
                <ele>92.904541</ele>
                <time>2004-08-28T08:54:58Z</time>
            </trkpt>
            <trkpt lon="101.053147" lat="13.191962">
                <ele>93.385132</ele>
                <time>2004-08-28T08:55:04Z</time>
            </trkpt>
            <trkpt lon="101.053276" lat="13.191769">
                <ele>95.307739</ele>
                <time>2004-08-28T08:55:17Z</time>
            </trkpt>
            <trkpt lon="101.053534" lat="13.191533">
                <ele>97.230469</ele>
                <time>2004-08-28T08:55:35Z</time>
            </trkpt>
            <trkpt lon="101.053705" lat="13.191319">
                <ele>100.595093</ele>
                <time>2004-08-28T08:55:53Z</time>
            </trkpt>
            <trkpt lon="101.053770" lat="13.191254">
                <ele>102.517700</ele>
                <time>2004-08-28T08:56:05Z</time>
            </trkpt>
            <trkpt lon="101.053920" lat="13.191104">
                <ele>106.843628</ele>
                <time>2004-08-28T08:56:27Z</time>
            </trkpt>
            <trkpt lon="101.054049" lat="13.191040">
                <ele>107.805054</ele>
                <time>2004-08-28T08:56:42Z</time>
            </trkpt>
            <trkpt lon="101.054327" lat="13.190889">
                <ele>108.285645</ele>
                <time>2004-08-28T08:56:57Z</time>
            </trkpt>
            <trkpt lon="101.054564" lat="13.190782">
                <ele>103.959717</ele>
                <time>2004-08-28T08:57:09Z</time>
            </trkpt>
            <trkpt lon="101.055014" lat="13.190546">
                <ele>102.037109</ele>
                <time>2004-08-28T08:57:29Z</time>
            </trkpt>
            <trkpt lon="101.055293" lat="13.190439">
                <ele>108.766235</ele>
                <time>2004-08-28T08:57:48Z</time>
            </trkpt>
            <trkpt lon="101.055336" lat="13.190417">
                <ele>109.727661</ele>
                <time>2004-08-28T08:57:52Z</time>
            </trkpt>
            <trkpt lon="101.055357" lat="13.190417">
                <ele>110.208252</ele>
                <time>2004-08-28T08:57:54Z</time>
            </trkpt>
            <trkpt lon="101.055400" lat="13.190396">
                <ele>110.208252</ele>
                <time>2004-08-28T08:57:57Z</time>
            </trkpt>
            <trkpt lon="101.055486" lat="13.190396">
                <ele>111.650269</ele>
                <time>2004-08-28T08:58:04Z</time>
            </trkpt>
            <trkpt lon="101.055765" lat="13.190160">
                <ele>110.208252</ele>
                <time>2004-08-28T08:58:24Z</time>
            </trkpt>
            <trkpt lon="101.055915" lat="13.189924">
                <ele>114.053589</ele>
                <time>2004-08-28T08:58:37Z</time>
            </trkpt>
            <trkpt lon="101.056023" lat="13.189774">
                <ele>115.014893</ele>
                <time>2004-08-28T08:58:51Z</time>
            </trkpt>
            <trkpt lon="101.056087" lat="13.189731">
                <ele>115.014893</ele>
                <time>2004-08-28T08:58:55Z</time>
            </trkpt>
            <trkpt lon="101.056130" lat="13.189688">
                <ele>114.534180</ele>
                <time>2004-08-28T08:59:05Z</time>
            </trkpt>
            <trkpt lon="101.056173" lat="13.189623">
                <ele>114.534180</ele>
                <time>2004-08-28T08:59:19Z</time>
            </trkpt>
            <trkpt lon="101.056108" lat="13.189645">
                <ele>114.534180</ele>
                <time>2004-08-28T08:59:42Z</time>
            </trkpt>
            <trkpt lon="101.056001" lat="13.189602">
                <ele>115.976196</ele>
                <time>2004-08-28T08:59:57Z</time>
            </trkpt>
            <trkpt lon="101.055980" lat="13.189580">
                <ele>116.937500</ele>
                <time>2004-08-28T08:59:59Z</time>
            </trkpt>
            <trkpt lon="101.055894" lat="13.189495">
                <ele>119.340820</ele>
                <time>2004-08-28T09:00:15Z</time>
            </trkpt>
            <trkpt lon="101.055851" lat="13.189409">
                <ele>123.186157</ele>
                <time>2004-08-28T09:00:34Z</time>
            </trkpt>
            <trkpt lon="101.055808" lat="13.189301">
                <ele>124.628052</ele>
                <time>2004-08-28T09:00:53Z</time>
            </trkpt>
            <trkpt lon="101.055722" lat="13.189130">
                <ele>127.031372</ele>
                <time>2004-08-28T09:01:14Z</time>
            </trkpt>
            <trkpt lon="101.055679" lat="13.188915">
                <ele>129.434692</ele>
                <time>2004-08-28T09:01:33Z</time>
            </trkpt>
            <trkpt lon="101.055722" lat="13.188829">
                <ele>131.357300</ele>
                <time>2004-08-28T09:01:45Z</time>
            </trkpt>
            <trkpt lon="101.055636" lat="13.188593">
                <ele>131.357300</ele>
                <time>2004-08-28T09:02:11Z</time>
            </trkpt>
            <trkpt lon="101.055679" lat="13.188465">
                <ele>132.799316</ele>
                <time>2004-08-28T09:02:24Z</time>
            </trkpt>
            <trkpt lon="101.055701" lat="13.188465">
                <ele>132.799316</ele>
                <time>2004-08-28T09:02:25Z</time>
            </trkpt>
            <trkpt lon="101.055808" lat="13.188379">
                <ele>137.125244</ele>
                <time>2004-08-28T09:02:43Z</time>
            </trkpt>
            <trkpt lon="101.055830" lat="13.188357">
                <ele>137.125244</ele>
                <time>2004-08-28T09:02:46Z</time>
            </trkpt>
            <trkpt lon="101.055851" lat="13.188293">
                <ele>139.047852</ele>
                <time>2004-08-28T09:02:53Z</time>
            </trkpt>
            <trkpt lon="101.055958" lat="13.188057">
                <ele>140.009155</ele>
                <time>2004-08-28T09:03:14Z</time>
            </trkpt>
            <trkpt lon="101.056087" lat="13.187714">
                <ele>140.009155</ele>
                <time>2004-08-28T09:03:34Z</time>
            </trkpt>
            <trkpt lon="101.056216" lat="13.187370">
                <ele>142.893066</ele>
                <time>2004-08-28T09:03:54Z</time>
            </trkpt>
            <trkpt lon="101.056345" lat="13.187134">
                <ele>146.738403</ele>
                <time>2004-08-28T09:04:12Z</time>
            </trkpt>
            <trkpt lon="101.056559" lat="13.186855">
                <ele>147.218994</ele>
                <time>2004-08-28T09:04:32Z</time>
            </trkpt>
            <trkpt lon="101.056666" lat="13.186727">
                <ele>149.141602</ele>
                <time>2004-08-28T09:04:47Z</time>
            </trkpt>
            <trkpt lon="101.056666" lat="13.186705">
                <ele>149.622314</ele>
                <time>2004-08-28T09:04:49Z</time>
            </trkpt>
            <trkpt lon="101.056688" lat="13.186555">
                <ele>151.544922</ele>
                <time>2004-08-28T09:05:04Z</time>
            </trkpt>
            <trkpt lon="101.056688" lat="13.186533">
                <ele>152.025757</ele>
                <time>2004-08-28T09:05:05Z</time>
            </trkpt>
            <trkpt lon="101.056688" lat="13.186319">
                <ele>152.986938</ele>
                <time>2004-08-28T09:05:18Z</time>
            </trkpt>
            <trkpt lon="101.056774" lat="13.186104">
                <ele>153.467651</ele>
                <time>2004-08-28T09:05:35Z</time>
            </trkpt>
            <trkpt lon="101.057053" lat="13.185718">
                <ele>153.467651</ele>
                <time>2004-08-28T09:06:02Z</time>
            </trkpt>
            <trkpt lon="101.057031" lat="13.185396">
                <ele>157.793579</ele>
                <time>2004-08-28T09:06:22Z</time>
            </trkpt>
            <trkpt lon="101.056967" lat="13.185310">
                <ele>158.754761</ele>
                <time>2004-08-28T09:06:36Z</time>
            </trkpt>
            <trkpt lon="101.056902" lat="13.185182">
                <ele>159.235474</ele>
                <time>2004-08-28T09:06:53Z</time>
            </trkpt>
            <trkpt lon="101.056817" lat="13.184988">
                <ele>160.677490</ele>
                <time>2004-08-28T09:07:12Z</time>
            </trkpt>
            <trkpt lon="101.056752" lat="13.184903">
                <ele>164.042114</ele>
                <time>2004-08-28T09:07:35Z</time>
            </trkpt>
            <trkpt lon="101.056731" lat="13.184946">
                <ele>172.213257</ele>
                <time>2004-08-28T09:09:42Z</time>
            </trkpt>
            <trkpt lon="101.056280" lat="13.185074">
                <ele>169.810059</ele>
                <time>2004-08-28T09:10:09Z</time>
            </trkpt>
            <trkpt lon="101.056151" lat="13.185117">
                <ele>167.887329</ele>
                <time>2004-08-28T09:10:16Z</time>
            </trkpt>
            <trkpt lon="101.055701" lat="13.184838">
                <ele>165.484131</ele>
                <time>2004-08-28T09:10:37Z</time>
            </trkpt>
            <trkpt lon="101.055357" lat="13.184431">
                <ele>165.964722</ele>
                <time>2004-08-28T09:11:00Z</time>
            </trkpt>
            <trkpt lon="101.055336" lat="13.184388">
                <ele>160.677490</ele>
                <time>2004-08-28T09:11:15Z</time>
            </trkpt>
            <trkpt lon="101.055379" lat="13.184495">
                <ele>155.390259</ele>
                <time>2004-08-28T09:12:32Z</time>
            </trkpt>
            <trkpt lon="101.055379" lat="13.184538">
                <ele>154.909546</ele>
                <time>2004-08-28T09:12:57Z</time>
            </trkpt>
            <trkpt lon="101.055379" lat="13.184516">
                <ele>154.909546</ele>
                <time>2004-08-28T09:13:06Z</time>
            </trkpt>
            <trkpt lon="101.055336" lat="13.184388">
                <ele>155.390259</ele>
                <time>2004-08-28T09:13:18Z</time>
            </trkpt>
            <trkpt lon="101.055293" lat="13.184366">
                <ele>155.390259</ele>
                <time>2004-08-28T09:13:27Z</time>
            </trkpt>
            <trkpt lon="101.055229" lat="13.184302">
                <ele>155.390259</ele>
                <time>2004-08-28T09:13:47Z</time>
            </trkpt>
            <trkpt lon="101.055121" lat="13.184237">
                <ele>154.909546</ele>
                <time>2004-08-28T09:13:59Z</time>
            </trkpt>
            <trkpt lon="101.055079" lat="13.184152">
                <ele>154.428955</ele>
                <time>2004-08-28T09:14:15Z</time>
            </trkpt>
            <trkpt lon="101.054993" lat="13.184087">
                <ele>154.909546</ele>
                <time>2004-08-28T09:14:31Z</time>
            </trkpt>
            <trkpt lon="101.054950" lat="13.184087">
                <ele>154.909546</ele>
                <time>2004-08-28T09:14:37Z</time>
            </trkpt>
            <trkpt lon="101.054671" lat="13.184001">
                <ele>156.832153</ele>
                <time>2004-08-28T09:15:04Z</time>
            </trkpt>
            <trkpt lon="101.054306" lat="13.183894">
                <ele>156.351562</ele>
                <time>2004-08-28T09:15:26Z</time>
            </trkpt>
            <trkpt lon="101.054156" lat="13.183808">
                <ele>154.909546</ele>
                <time>2004-08-28T09:15:42Z</time>
            </trkpt>
            <trkpt lon="101.054027" lat="13.183765">
                <ele>155.390259</ele>
                <time>2004-08-28T09:15:58Z</time>
            </trkpt>
            <trkpt lon="101.053941" lat="13.183744">
                <ele>153.948364</ele>
                <time>2004-08-28T09:16:15Z</time>
            </trkpt>
            <trkpt lon="101.053984" lat="13.183765">
                <ele>156.832153</ele>
                <time>2004-08-28T09:16:56Z</time>
            </trkpt>
            <trkpt lon="101.054113" lat="13.183787">
                <ele>156.832153</ele>
                <time>2004-08-28T09:17:10Z</time>
            </trkpt>
            <trkpt lon="101.054349" lat="13.183937">
                <ele>156.351562</ele>
                <time>2004-08-28T09:17:26Z</time>
            </trkpt>
            <trkpt lon="101.054478" lat="13.183980">
                <ele>155.390259</ele>
                <time>2004-08-28T09:17:40Z</time>
            </trkpt>
            <trkpt lon="101.054692" lat="13.184023">
                <ele>153.948364</ele>
                <time>2004-08-28T09:17:58Z</time>
            </trkpt>
            <trkpt lon="101.055079" lat="13.184087">
                <ele>153.467651</ele>
                <time>2004-08-28T09:18:19Z</time>
            </trkpt>
            <trkpt lon="101.055143" lat="13.184173">
                <ele>154.909546</ele>
                <time>2004-08-28T09:18:24Z</time>
            </trkpt>
            <trkpt lon="101.055207" lat="13.184216">
                <ele>156.351562</ele>
                <time>2004-08-28T09:18:39Z</time>
            </trkpt>
            <trkpt lon="101.055229" lat="13.184280">
                <ele>157.312866</ele>
                <time>2004-08-28T09:19:01Z</time>
            </trkpt>
            <trkpt lon="101.055336" lat="13.184345">
                <ele>155.870972</ele>
                <time>2004-08-28T09:19:19Z</time>
            </trkpt>
            <trkpt lon="101.055357" lat="13.184366">
                <ele>153.467651</ele>
                <time>2004-08-28T09:19:35Z</time>
            </trkpt>
            <trkpt lon="101.055400" lat="13.184452">
                <ele>147.699707</ele>
                <time>2004-08-28T09:20:22Z</time>
            </trkpt>
            <trkpt lon="101.055422" lat="13.184559">
                <ele>148.180420</ele>
                <time>2004-08-28T09:20:41Z</time>
            </trkpt>
            <trkpt lon="101.055508" lat="13.184645">
                <ele>148.180420</ele>
                <time>2004-08-28T09:20:58Z</time>
            </trkpt>
            <trkpt lon="101.055572" lat="13.184752">
                <ele>148.661011</ele>
                <time>2004-08-28T09:21:18Z</time>
            </trkpt>
            <trkpt lon="101.055722" lat="13.184881">
                <ele>151.064209</ele>
                <time>2004-08-28T09:21:34Z</time>
            </trkpt>
            <trkpt lon="101.055872" lat="13.185031">
                <ele>152.025757</ele>
                <time>2004-08-28T09:21:52Z</time>
            </trkpt>
            <trkpt lon="101.055980" lat="13.185096">
                <ele>152.025757</ele>
                <time>2004-08-28T09:21:57Z</time>
            </trkpt>
            <trkpt lon="101.056087" lat="13.185053">
                <ele>152.025757</ele>
                <time>2004-08-28T09:22:10Z</time>
            </trkpt>
            <trkpt lon="101.056130" lat="13.185031">
                <ele>152.025757</ele>
                <time>2004-08-28T09:22:13Z</time>
            </trkpt>
            <trkpt lon="101.056302" lat="13.185010">
                <ele>154.428955</ele>
                <time>2004-08-28T09:22:30Z</time>
            </trkpt>
            <trkpt lon="101.056623" lat="13.184967">
                <ele>155.390259</ele>
                <time>2004-08-28T09:22:44Z</time>
            </trkpt>
            <trkpt lon="101.056645" lat="13.184946">
                <ele>156.832153</ele>
                <time>2004-08-28T09:23:07Z</time>
            </trkpt>
            <trkpt lon="101.056623" lat="13.185010">
                <ele>163.080811</ele>
                <time>2004-08-28T09:24:55Z</time>
            </trkpt>
            <trkpt lon="101.056323" lat="13.185053">
                <ele>165.003418</ele>
                <time>2004-08-28T09:25:17Z</time>
            </trkpt>
            <trkpt lon="101.056237" lat="13.185053">
                <ele>165.003418</ele>
                <time>2004-08-28T09:25:22Z</time>
            </trkpt>
            <trkpt lon="101.056023" lat="13.185139">
                <ele>164.042114</ele>
                <time>2004-08-28T09:25:35Z</time>
            </trkpt>
            <trkpt lon="101.055701" lat="13.184860">
                <ele>163.080811</ele>
                <time>2004-08-28T09:25:52Z</time>
            </trkpt>
            <trkpt lon="101.055551" lat="13.184710">
                <ele>161.638916</ele>
                <time>2004-08-28T09:26:07Z</time>
            </trkpt>
            <trkpt lon="101.055465" lat="13.184667">
                <ele>160.196899</ele>
                <time>2004-08-28T09:26:50Z</time>
            </trkpt>
            <trkpt lon="101.055422" lat="13.184602">
                <ele>156.351562</ele>
                <time>2004-08-28T09:27:17Z</time>
            </trkpt>
            <trkpt lon="101.055422" lat="13.184581">
                <ele>155.870972</ele>
                <time>2004-08-28T09:27:20Z</time>
            </trkpt>
            <trkpt lon="101.055400" lat="13.184538">
                <ele>155.870972</ele>
                <time>2004-08-28T09:27:24Z</time>
            </trkpt>
            <trkpt lon="101.055315" lat="13.184366">
                <ele>154.428955</ele>
                <time>2004-08-28T09:27:36Z</time>
            </trkpt>
            <trkpt lon="101.055272" lat="13.184323">
                <ele>154.909546</ele>
                <time>2004-08-28T09:27:50Z</time>
            </trkpt>
            <trkpt lon="101.055164" lat="13.184237">
                <ele>153.948364</ele>
                <time>2004-08-28T09:28:10Z</time>
            </trkpt>
            <trkpt lon="101.055057" lat="13.184152">
                <ele>159.235474</ele>
                <time>2004-08-28T09:28:38Z</time>
            </trkpt>
            <trkpt lon="101.054993" lat="13.184087">
                <ele>157.312866</ele>
                <time>2004-08-28T09:28:50Z</time>
            </trkpt>
            <trkpt lon="101.054778" lat="13.184044">
                <ele>157.312866</ele>
                <time>2004-08-28T09:29:12Z</time>
            </trkpt>
            <trkpt lon="101.054435" lat="13.184001">
                <ele>157.312866</ele>
                <time>2004-08-28T09:29:33Z</time>
            </trkpt>
            <trkpt lon="101.054199" lat="13.183873">
                <ele>157.793579</ele>
                <time>2004-08-28T09:29:50Z</time>
            </trkpt>
            <trkpt lon="101.054049" lat="13.183765">
                <ele>156.832153</ele>
                <time>2004-08-28T09:30:08Z</time>
            </trkpt>
            <trkpt lon="101.053877" lat="13.183744">
                <ele>155.870972</ele>
                <time>2004-08-28T09:30:26Z</time>
            </trkpt>
            <trkpt lon="101.053705" lat="13.183701">
                <ele>154.428955</ele>
                <time>2004-08-28T09:30:39Z</time>
            </trkpt>
            <trkpt lon="101.053512" lat="13.183615">
                <ele>152.506348</ele>
                <time>2004-08-28T09:30:55Z</time>
            </trkpt>
            <trkpt lon="101.053383" lat="13.183551">
                <ele>152.506348</ele>
                <time>2004-08-28T09:31:07Z</time>
            </trkpt>
            <trkpt lon="101.053319" lat="13.183529">
                <ele>153.948364</ele>
                <time>2004-08-28T09:31:28Z</time>
            </trkpt>
            <trkpt lon="101.053276" lat="13.183508">
                <ele>155.870972</ele>
                <time>2004-08-28T09:33:18Z</time>
            </trkpt>
            <trkpt lon="101.053083" lat="13.183422">
                <ele>157.312866</ele>
                <time>2004-08-28T09:33:38Z</time>
            </trkpt>
            <trkpt lon="101.052976" lat="13.183293">
                <ele>157.312866</ele>
                <time>2004-08-28T09:33:55Z</time>
            </trkpt>
            <trkpt lon="101.052718" lat="13.183057">
                <ele>156.351562</ele>
                <time>2004-08-28T09:34:11Z</time>
            </trkpt>
            <trkpt lon="101.052353" lat="13.182607">
                <ele>155.870972</ele>
                <time>2004-08-28T09:34:33Z</time>
            </trkpt>
            <trkpt lon="101.052182" lat="13.182156">
                <ele>154.428955</ele>
                <time>2004-08-28T09:34:50Z</time>
            </trkpt>
            <trkpt lon="101.052032" lat="13.181705">
                <ele>152.025757</ele>
                <time>2004-08-28T09:35:06Z</time>
            </trkpt>
            <trkpt lon="101.051774" lat="13.180954">
                <ele>147.218994</ele>
                <time>2004-08-28T09:35:29Z</time>
            </trkpt>
            <trkpt lon="101.051688" lat="13.180311">
                <ele>148.180420</ele>
                <time>2004-08-28T09:35:50Z</time>
            </trkpt>
            <trkpt lon="101.051667" lat="13.179667">
                <ele>144.815796</ele>
                <time>2004-08-28T09:36:14Z</time>
            </trkpt>
            <trkpt lon="101.051667" lat="13.179431">
                <ele>144.335205</ele>
                <time>2004-08-28T09:36:32Z</time>
            </trkpt>
            <trkpt lon="101.051667" lat="13.179302">
                <ele>144.335205</ele>
                <time>2004-08-28T09:36:44Z</time>
            </trkpt>
            <trkpt lon="101.051645" lat="13.179109">
                <ele>144.815796</ele>
                <time>2004-08-28T09:36:56Z</time>
            </trkpt>
            <trkpt lon="101.051688" lat="13.179002">
                <ele>142.412476</ele>
                <time>2004-08-28T09:37:01Z</time>
            </trkpt>
            <trkpt lon="101.051688" lat="13.178508">
                <ele>138.567261</ele>
                <time>2004-08-28T09:37:18Z</time>
            </trkpt>
            <trkpt lon="101.051495" lat="13.178058">
                <ele>136.163940</ele>
                <time>2004-08-28T09:37:32Z</time>
            </trkpt>
            <trkpt lon="101.051280" lat="13.177307">
                <ele>129.915283</ele>
                <time>2004-08-28T09:37:50Z</time>
            </trkpt>
            <trkpt lon="101.051130" lat="13.177049">
                <ele>125.589355</ele>
                <time>2004-08-28T09:37:57Z</time>
            </trkpt>
            <trkpt lon="101.050594" lat="13.176792">
                <ele>118.379395</ele>
                <time>2004-08-28T09:38:11Z</time>
            </trkpt>
            <trkpt lon="101.050143" lat="13.176835">
                <ele>115.495605</ele>
                <time>2004-08-28T09:38:24Z</time>
            </trkpt>
            <trkpt lon="101.049693" lat="13.177049">
                <ele>111.169556</ele>
                <time>2004-08-28T09:38:36Z</time>
            </trkpt>
            <trkpt lon="101.049521" lat="13.177071">
                <ele>109.246948</ele>
                <time>2004-08-28T09:38:40Z</time>
            </trkpt>
            <trkpt lon="101.048963" lat="13.177028">
                <ele>105.401733</ele>
                <time>2004-08-28T09:38:54Z</time>
            </trkpt>
            <trkpt lon="101.048856" lat="13.177049">
                <ele>103.959717</ele>
                <time>2004-08-28T09:39:04Z</time>
            </trkpt>
            <trkpt lon="101.048856" lat="13.177028">
                <ele>102.037109</ele>
                <time>2004-08-28T09:39:18Z</time>
            </trkpt>
            <trkpt lon="101.048813" lat="13.177049">
                <ele>101.556396</ele>
                <time>2004-08-28T09:39:27Z</time>
            </trkpt>
            <trkpt lon="101.048706" lat="13.177071">
                <ele>101.075684</ele>
                <time>2004-08-28T09:39:32Z</time>
            </trkpt>
            <trkpt lon="101.048169" lat="13.177242">
                <ele>98.672485</ele>
                <time>2004-08-28T09:39:44Z</time>
            </trkpt>
            <trkpt lon="101.047375" lat="13.177414">
                <ele>96.749878</ele>
                <time>2004-08-28T09:40:03Z</time>
            </trkpt>
            <trkpt lon="101.046796" lat="13.177714">
                <ele>94.827148</ele>
                <time>2004-08-28T09:40:19Z</time>
            </trkpt>
            <trkpt lon="101.046453" lat="13.177907">
                <ele>94.827148</ele>
                <time>2004-08-28T09:40:31Z</time>
            </trkpt>
            <trkpt lon="101.046023" lat="13.178144">
                <ele>97.230469</ele>
                <time>2004-08-28T09:40:48Z</time>
            </trkpt>
            <trkpt lon="101.045723" lat="13.178251">
                <ele>98.191895</ele>
                <time>2004-08-28T09:41:04Z</time>
            </trkpt>
            <trkpt lon="101.045423" lat="13.178294">
                <ele>97.230469</ele>
                <time>2004-08-28T09:41:18Z</time>
            </trkpt>
            <trkpt lon="101.045101" lat="13.178315">
                <ele>95.307739</ele>
                <time>2004-08-28T09:41:31Z</time>
            </trkpt>
            <trkpt lon="101.044757" lat="13.178444">
                <ele>92.423950</ele>
                <time>2004-08-28T09:41:47Z</time>
            </trkpt>
            <trkpt lon="101.044564" lat="13.178551">
                <ele>92.423950</ele>
                <time>2004-08-28T09:41:58Z</time>
            </trkpt>
            <trkpt lon="101.044242" lat="13.178766">
                <ele>93.385132</ele>
                <time>2004-08-28T09:42:15Z</time>
            </trkpt>
            <trkpt lon="101.043856" lat="13.179109">
                <ele>90.981934</ele>
                <time>2004-08-28T09:42:31Z</time>
            </trkpt>
            <trkpt lon="101.043856" lat="13.179495">
                <ele>89.539917</ele>
                <time>2004-08-28T09:42:43Z</time>
            </trkpt>
            <trkpt lon="101.044006" lat="13.180203">
                <ele>90.981934</ele>
                <time>2004-08-28T09:43:02Z</time>
            </trkpt>
            <trkpt lon="101.044157" lat="13.180654">
                <ele>91.943237</ele>
                <time>2004-08-28T09:43:18Z</time>
            </trkpt>
            <trkpt lon="101.044157" lat="13.180697">
                <ele>92.423950</ele>
                <time>2004-08-28T09:43:26Z</time>
            </trkpt>
            <trkpt lon="101.044199" lat="13.181019">
                <ele>91.943237</ele>
                <time>2004-08-28T09:43:40Z</time>
            </trkpt>
            <trkpt lon="101.044307" lat="13.181491">
                <ele>90.020630</ele>
                <time>2004-08-28T09:43:58Z</time>
            </trkpt>
            <trkpt lon="101.044221" lat="13.181641">
                <ele>89.539917</ele>
                <time>2004-08-28T09:44:03Z</time>
            </trkpt>
            <trkpt lon="101.043663" lat="13.181705">
                <ele>87.136597</ele>
                <time>2004-08-28T09:44:17Z</time>
            </trkpt>
            <trkpt lon="101.043019" lat="13.181856">
                <ele>85.213989</ele>
                <time>2004-08-28T09:44:31Z</time>
            </trkpt>
            <trkpt lon="101.042848" lat="13.181877">
                <ele>84.252686</ele>
                <time>2004-08-28T09:44:35Z</time>
            </trkpt>
            <trkpt lon="101.042612" lat="13.181834">
                <ele>83.291382</ele>
                <time>2004-08-28T09:44:40Z</time>
            </trkpt>
            <trkpt lon="101.041882" lat="13.181727">
                <ele>81.368774</ele>
                <time>2004-08-28T09:44:58Z</time>
            </trkpt>
            <trkpt lon="101.041410" lat="13.181813">
                <ele>80.888184</ele>
                <time>2004-08-28T09:45:11Z</time>
            </trkpt>
            <trkpt lon="101.040895" lat="13.181791">
                <ele>79.926636</ele>
                <time>2004-08-28T09:45:25Z</time>
            </trkpt>
            <trkpt lon="101.040401" lat="13.181791">
                <ele>79.446045</ele>
                <time>2004-08-28T09:45:40Z</time>
            </trkpt>
            <trkpt lon="101.039758" lat="13.181899">
                <ele>77.523438</ele>
                <time>2004-08-28T09:45:57Z</time>
            </trkpt>
            <trkpt lon="101.039114" lat="13.182006">
                <ele>75.600830</ele>
                <time>2004-08-28T09:46:13Z</time>
            </trkpt>
            <trkpt lon="101.038427" lat="13.182092">
                <ele>73.678223</ele>
                <time>2004-08-28T09:46:31Z</time>
            </trkpt>
            <trkpt lon="101.038213" lat="13.182113">
                <ele>73.197632</ele>
                <time>2004-08-28T09:46:37Z</time>
            </trkpt>
            <trkpt lon="101.037934" lat="13.182049">
                <ele>71.755493</ele>
                <time>2004-08-28T09:46:43Z</time>
            </trkpt>
            <trkpt lon="101.037483" lat="13.182092">
                <ele>70.313477</ele>
                <time>2004-08-28T09:46:53Z</time>
            </trkpt>
            <trkpt lon="101.036711" lat="13.182220">
                <ele>69.352295</ele>
                <time>2004-08-28T09:47:10Z</time>
            </trkpt>
            <trkpt lon="101.036496" lat="13.182220">
                <ele>68.871582</ele>
                <time>2004-08-28T09:47:15Z</time>
            </trkpt>
            <trkpt lon="101.035767" lat="13.182220">
                <ele>66.948975</ele>
                <time>2004-08-28T09:47:30Z</time>
            </trkpt>
            <trkpt lon="101.035681" lat="13.182242">
                <ele>66.468262</ele>
                <time>2004-08-28T09:47:32Z</time>
            </trkpt>
            <trkpt lon="101.035016" lat="13.182306">
                <ele>64.065063</ele>
                <time>2004-08-28T09:47:48Z</time>
            </trkpt>
            <trkpt lon="101.034737" lat="13.182263">
                <ele>63.584351</ele>
                <time>2004-08-28T09:47:58Z</time>
            </trkpt>
            <trkpt lon="101.034329" lat="13.182178">
                <ele>63.103638</ele>
                <time>2004-08-28T09:48:12Z</time>
            </trkpt>
            <trkpt lon="101.033900" lat="13.182135">
                <ele>63.584351</ele>
                <time>2004-08-28T09:48:26Z</time>
            </trkpt>
            <trkpt lon="101.033814" lat="13.182414">
                <ele>64.545654</ele>
                <time>2004-08-28T09:48:38Z</time>
            </trkpt>
            <trkpt lon="101.033707" lat="13.182735">
                <ele>66.948975</ele>
                <time>2004-08-28T09:48:55Z</time>
            </trkpt>
            <trkpt lon="101.033556" lat="13.183143">
                <ele>69.352295</ele>
                <time>2004-08-28T09:49:13Z</time>
            </trkpt>
            <trkpt lon="101.033170" lat="13.183401">
                <ele>67.910278</ele>
                <time>2004-08-28T09:49:27Z</time>
            </trkpt>
            <trkpt lon="101.032655" lat="13.183658">
                <ele>66.468262</ele>
                <time>2004-08-28T09:49:39Z</time>
            </trkpt>
            <trkpt lon="101.032183" lat="13.183637">
                <ele>64.545654</ele>
                <time>2004-08-28T09:49:51Z</time>
            </trkpt>
            <trkpt lon="101.031947" lat="13.183722">
                <ele>63.584351</ele>
                <time>2004-08-28T09:49:57Z</time>
            </trkpt>
            <trkpt lon="101.031668" lat="13.183959">
                <ele>62.142334</ele>
                <time>2004-08-28T09:50:06Z</time>
            </trkpt>
            <trkpt lon="101.031582" lat="13.183873">
                <ele>62.142334</ele>
                <time>2004-08-28T09:50:13Z</time>
            </trkpt>
            <trkpt lon="101.031582" lat="13.183787">
                <ele>62.622925</ele>
                <time>2004-08-28T09:50:18Z</time>
            </trkpt>
            <trkpt lon="101.031539" lat="13.183744">
                <ele>63.584351</ele>
                <time>2004-08-28T09:50:33Z</time>
            </trkpt>
            <trkpt lon="101.031518" lat="13.183744">
                <ele>61.661743</ele>
                <time>2004-08-28T09:53:03Z</time>
            </trkpt>
            <trkpt lon="101.031518" lat="13.183744">
                <ele>60.700317</ele>
                <time>2004-08-28T10:04:48Z</time>
            </trkpt>
            <trkpt lon="101.031497" lat="13.183701">
                <ele>60.700317</ele>
                <time>2004-08-28T10:05:17Z</time>
            </trkpt>
            <trkpt lon="101.031497" lat="13.183658">
                <ele>60.700317</ele>
                <time>2004-08-28T10:05:20Z</time>
            </trkpt>
            <trkpt lon="101.031475" lat="13.183615">
                <ele>61.181030</ele>
                <time>2004-08-28T10:05:25Z</time>
            </trkpt>
            <trkpt lon="101.031260" lat="13.183401">
                <ele>61.181030</ele>
                <time>2004-08-28T10:05:38Z</time>
            </trkpt>
            <trkpt lon="101.030617" lat="13.182843">
                <ele>59.739136</ele>
                <time>2004-08-28T10:05:56Z</time>
            </trkpt>
            <trkpt lon="101.030016" lat="13.182285">
                <ele>57.816528</ele>
                <time>2004-08-28T10:06:12Z</time>
            </trkpt>
            <trkpt lon="101.029737" lat="13.181748">
                <ele>55.893799</ele>
                <time>2004-08-28T10:06:25Z</time>
            </trkpt>
            <trkpt lon="101.029480" lat="13.181491">
                <ele>55.413086</ele>
                <time>2004-08-28T10:06:35Z</time>
            </trkpt>
            <trkpt lon="101.029201" lat="13.181233">
                <ele>58.297119</ele>
                <time>2004-08-28T10:06:47Z</time>
            </trkpt>
            <trkpt lon="101.029201" lat="13.181233">
                <ele>57.816528</ele>
                <time>2004-08-28T10:07:02Z</time>
            </trkpt>
            <trkpt lon="101.029286" lat="13.181126">
                <ele>58.297119</ele>
                <time>2004-08-28T10:07:08Z</time>
            </trkpt>
            <trkpt lon="101.029651" lat="13.180804">
                <ele>58.297119</ele>
                <time>2004-08-28T10:07:22Z</time>
            </trkpt>
            <trkpt lon="101.030059" lat="13.180568">
                <ele>57.816528</ele>
                <time>2004-08-28T10:07:38Z</time>
            </trkpt>
            <trkpt lon="101.030102" lat="13.180547">
                <ele>57.816528</ele>
                <time>2004-08-28T10:07:40Z</time>
            </trkpt>
            <trkpt lon="101.030145" lat="13.180568">
                <ele>60.219727</ele>
                <time>2004-08-28T10:08:01Z</time>
            </trkpt>
            <trkpt lon="101.030102" lat="13.180547">
                <ele>64.065063</ele>
                <time>2004-08-28T10:08:27Z</time>
            </trkpt>
            <trkpt lon="101.030037" lat="13.180547">
                <ele>63.103638</ele>
                <time>2004-08-28T10:08:33Z</time>
            </trkpt>
            <trkpt lon="101.029930" lat="13.180611">
                <ele>60.219727</ele>
                <time>2004-08-28T10:08:47Z</time>
            </trkpt>
            <trkpt lon="101.029801" lat="13.180697">
                <ele>59.258423</ele>
                <time>2004-08-28T10:09:13Z</time>
            </trkpt>
            <trkpt lon="101.029544" lat="13.180869">
                <ele>58.297119</ele>
                <time>2004-08-28T10:09:25Z</time>
            </trkpt>
            <trkpt lon="101.029480" lat="13.180804">
                <ele>58.297119</ele>
                <time>2004-08-28T10:09:29Z</time>
            </trkpt>
            <trkpt lon="101.029243" lat="13.180568">
                <ele>59.258423</ele>
                <time>2004-08-28T10:09:43Z</time>
            </trkpt>
            <trkpt lon="101.029243" lat="13.180568">
                <ele>59.739136</ele>
                <time>2004-08-28T10:09:59Z</time>
            </trkpt>
            <trkpt lon="101.029072" lat="13.180439">
                <ele>61.181030</ele>
                <time>2004-08-28T10:10:32Z</time>
            </trkpt>
            <trkpt lon="101.028728" lat="13.180139">
                <ele>62.622925</ele>
                <time>2004-08-28T10:10:46Z</time>
            </trkpt>
            <trkpt lon="101.028278" lat="13.179753">
                <ele>64.545654</ele>
                <time>2004-08-28T10:11:06Z</time>
            </trkpt>
            <trkpt lon="101.028020" lat="13.179538">
                <ele>66.948975</ele>
                <time>2004-08-28T10:11:20Z</time>
            </trkpt>
            <trkpt lon="101.027699" lat="13.179259">
                <ele>70.794189</ele>
                <time>2004-08-28T10:11:39Z</time>
            </trkpt>
            <trkpt lon="101.027420" lat="13.179002">
                <ele>73.197632</ele>
                <time>2004-08-28T10:11:57Z</time>
            </trkpt>
            <trkpt lon="101.027184" lat="13.178787">
                <ele>73.678223</ele>
                <time>2004-08-28T10:12:12Z</time>
            </trkpt>
            <trkpt lon="101.026840" lat="13.178465">
                <ele>75.600830</ele>
                <time>2004-08-28T10:12:31Z</time>
            </trkpt>
            <trkpt lon="101.026497" lat="13.178122">
                <ele>75.600830</ele>
                <time>2004-08-28T10:12:50Z</time>
            </trkpt>
            <trkpt lon="101.026111" lat="13.177800">
                <ele>74.158813</ele>
                <time>2004-08-28T10:13:09Z</time>
            </trkpt>
            <trkpt lon="101.026025" lat="13.177736">
                <ele>73.678223</ele>
                <time>2004-08-28T10:13:12Z</time>
            </trkpt>
            <trkpt lon="101.025488" lat="13.177371">
                <ele>74.158813</ele>
                <time>2004-08-28T10:13:29Z</time>
            </trkpt>
            <trkpt lon="101.025488" lat="13.177285">
                <ele>74.158813</ele>
                <time>2004-08-28T10:13:33Z</time>
            </trkpt>
            <trkpt lon="101.025660" lat="13.177114">
                <ele>75.600830</ele>
                <time>2004-08-28T10:13:50Z</time>
            </trkpt>
            <trkpt lon="101.025767" lat="13.176792">
                <ele>76.081421</ele>
                <time>2004-08-28T10:14:07Z</time>
            </trkpt>
            <trkpt lon="101.025403" lat="13.176470">
                <ele>76.562134</ele>
                <time>2004-08-28T10:14:20Z</time>
            </trkpt>
            <trkpt lon="101.025059" lat="13.176298">
                <ele>75.600830</ele>
                <time>2004-08-28T10:14:31Z</time>
            </trkpt>
            <trkpt lon="101.024952" lat="13.176169">
                <ele>74.158813</ele>
                <time>2004-08-28T10:14:35Z</time>
            </trkpt>
            <trkpt lon="101.024780" lat="13.175611">
                <ele>72.236206</ele>
                <time>2004-08-28T10:14:49Z</time>
            </trkpt>
            <trkpt lon="101.024866" lat="13.174775">
                <ele>71.755493</ele>
                <time>2004-08-28T10:15:07Z</time>
            </trkpt>
            <trkpt lon="101.024930" lat="13.174646">
                <ele>71.755493</ele>
                <time>2004-08-28T10:15:10Z</time>
            </trkpt>
            <trkpt lon="101.025059" lat="13.174517">
                <ele>71.755493</ele>
                <time>2004-08-28T10:15:14Z</time>
            </trkpt>
            <trkpt lon="101.025553" lat="13.174195">
                <ele>73.678223</ele>
                <time>2004-08-28T10:15:32Z</time>
            </trkpt>
            <trkpt lon="101.025574" lat="13.174174">
                <ele>73.678223</ele>
                <time>2004-08-28T10:15:35Z</time>
            </trkpt>
            <trkpt lon="101.025639" lat="13.174152">
                <ele>74.158813</ele>
                <time>2004-08-28T10:15:39Z</time>
            </trkpt>
            <trkpt lon="101.025832" lat="13.174045">
                <ele>75.120239</ele>
                <time>2004-08-28T10:15:54Z</time>
            </trkpt>
            <trkpt lon="101.026111" lat="13.174109">
                <ele>74.158813</ele>
                <time>2004-08-28T10:16:09Z</time>
            </trkpt>
            <trkpt lon="101.026132" lat="13.174109">
                <ele>74.158813</ele>
                <time>2004-08-28T10:16:10Z</time>
            </trkpt>
            <trkpt lon="101.026239" lat="13.174109">
                <ele>74.158813</ele>
                <time>2004-08-28T10:16:14Z</time>
            </trkpt>
            <trkpt lon="101.026561" lat="13.174303">
                <ele>73.678223</ele>
                <time>2004-08-28T10:16:31Z</time>
            </trkpt>
            <trkpt lon="101.026669" lat="13.174496">
                <ele>72.716919</ele>
                <time>2004-08-28T10:16:45Z</time>
            </trkpt>
            <trkpt lon="101.026669" lat="13.174517">
                <ele>71.755493</ele>
                <time>2004-08-28T10:17:06Z</time>
            </trkpt>
            <trkpt lon="101.026669" lat="13.174539">
                <ele>72.236206</ele>
                <time>2004-08-28T10:17:12Z</time>
            </trkpt>
            <trkpt lon="101.026690" lat="13.174560">
                <ele>71.755493</ele>
                <time>2004-08-28T10:17:16Z</time>
            </trkpt>
            <trkpt lon="101.026711" lat="13.174582">
                <ele>73.197632</ele>
                <time>2004-08-28T10:17:31Z</time>
            </trkpt>
            <trkpt lon="101.026711" lat="13.174560">
                <ele>72.716919</ele>
                <time>2004-08-28T10:17:33Z</time>
            </trkpt>
            <trkpt lon="101.026561" lat="13.174281">
                <ele>70.794189</ele>
                <time>2004-08-28T10:17:47Z</time>
            </trkpt>
            <trkpt lon="101.026282" lat="13.174088">
                <ele>69.352295</ele>
                <time>2004-08-28T10:18:00Z</time>
            </trkpt>
            <trkpt lon="101.026261" lat="13.174088">
                <ele>68.871582</ele>
                <time>2004-08-28T10:18:01Z</time>
            </trkpt>
            <trkpt lon="101.026068" lat="13.174045">
                <ele>67.429688</ele>
                <time>2004-08-28T10:18:13Z</time>
            </trkpt>
            <trkpt lon="101.025832" lat="13.174024">
                <ele>65.987671</ele>
                <time>2004-08-28T10:18:24Z</time>
            </trkpt>
            <trkpt lon="101.025703" lat="13.174131">
                <ele>68.390869</ele>
                <time>2004-08-28T10:18:39Z</time>
            </trkpt>
            <trkpt lon="101.025660" lat="13.174152">
                <ele>71.755493</ele>
                <time>2004-08-28T10:18:55Z</time>
            </trkpt>
            <trkpt lon="101.025660" lat="13.174152">
                <ele>71.755493</ele>
                <time>2004-08-28T10:19:14Z</time>
            </trkpt>
            <trkpt lon="101.025617" lat="13.174174">
                <ele>74.639526</ele>
                <time>2004-08-28T10:19:57Z</time>
            </trkpt>
            <trkpt lon="101.025510" lat="13.174281">
                <ele>74.639526</ele>
                <time>2004-08-28T10:20:06Z</time>
            </trkpt>
            <trkpt lon="101.025081" lat="13.174517">
                <ele>74.158813</ele>
                <time>2004-08-28T10:20:25Z</time>
            </trkpt>
            <trkpt lon="101.024909" lat="13.174689">
                <ele>74.158813</ele>
                <time>2004-08-28T10:20:38Z</time>
            </trkpt>
            <trkpt lon="101.024802" lat="13.174839">
                <ele>73.678223</ele>
                <time>2004-08-28T10:20:48Z</time>
            </trkpt>
            <trkpt lon="101.024609" lat="13.175182">
                <ele>73.197632</ele>
                <time>2004-08-28T10:21:01Z</time>
            </trkpt>
            <trkpt lon="101.024501" lat="13.175504">
                <ele>73.197632</ele>
                <time>2004-08-28T10:21:16Z</time>
            </trkpt>
            <trkpt lon="101.024437" lat="13.175611">
                <ele>74.158813</ele>
                <time>2004-08-28T10:21:27Z</time>
            </trkpt>
            <trkpt lon="101.024394" lat="13.175633">
                <ele>74.639526</ele>
                <time>2004-08-28T10:21:41Z</time>
            </trkpt>
            <trkpt lon="101.024373" lat="13.175654">
                <ele>75.600830</ele>
                <time>2004-08-28T10:22:03Z</time>
            </trkpt>
            <trkpt lon="101.024137" lat="13.175869">
                <ele>74.158813</ele>
                <time>2004-08-28T10:22:15Z</time>
            </trkpt>
            <trkpt lon="101.024115" lat="13.175869">
                <ele>74.158813</ele>
                <time>2004-08-28T10:22:24Z</time>
            </trkpt>
            <trkpt lon="101.024094" lat="13.175869">
                <ele>75.600830</ele>
                <time>2004-08-28T10:22:48Z</time>
            </trkpt>
            <trkpt lon="101.023815" lat="13.175719">
                <ele>74.158813</ele>
                <time>2004-08-28T10:23:00Z</time>
            </trkpt>
            <trkpt lon="101.023407" lat="13.175461">
                <ele>71.755493</ele>
                <time>2004-08-28T10:23:19Z</time>
            </trkpt>
            <trkpt lon="101.023407" lat="13.175461">
                <ele>72.716919</ele>
                <time>2004-08-28T10:23:43Z</time>
            </trkpt>
            <trkpt lon="101.023386" lat="13.175461">
                <ele>70.794189</ele>
                <time>2004-08-28T10:24:16Z</time>
            </trkpt>
            <trkpt lon="101.023235" lat="13.175590">
                <ele>71.274902</ele>
                <time>2004-08-28T10:24:29Z</time>
            </trkpt>
            <trkpt lon="101.023042" lat="13.175848">
                <ele>73.197632</ele>
                <time>2004-08-28T10:24:44Z</time>
            </trkpt>
            <trkpt lon="101.022913" lat="13.175976">
                <ele>74.158813</ele>
                <time>2004-08-28T10:24:52Z</time>
            </trkpt>
            <trkpt lon="101.022656" lat="13.175826">
                <ele>77.523438</ele>
                <time>2004-08-28T10:25:05Z</time>
            </trkpt>
            <trkpt lon="101.022205" lat="13.175483">
                <ele>80.407471</ele>
                <time>2004-08-28T10:25:21Z</time>
            </trkpt>
            <trkpt lon="101.021948" lat="13.175118">
                <ele>77.523438</ele>
                <time>2004-08-28T10:25:31Z</time>
            </trkpt>
            <trkpt lon="101.021712" lat="13.174560">
                <ele>71.274902</ele>
                <time>2004-08-28T10:25:47Z</time>
            </trkpt>
            <trkpt lon="101.021411" lat="13.173959">
                <ele>66.948975</ele>
                <time>2004-08-28T10:26:01Z</time>
            </trkpt>
            <trkpt lon="101.021154" lat="13.173401">
                <ele>64.065063</ele>
                <time>2004-08-28T10:26:14Z</time>
            </trkpt>
            <trkpt lon="101.021068" lat="13.173208">
                <ele>62.622925</ele>
                <time>2004-08-28T10:26:18Z</time>
            </trkpt>
            <trkpt lon="101.021025" lat="13.173122">
                <ele>62.622925</ele>
                <time>2004-08-28T10:26:20Z</time>
            </trkpt>
            <trkpt lon="101.020896" lat="13.172650">
                <ele>59.739136</ele>
                <time>2004-08-28T10:26:32Z</time>
            </trkpt>
            <trkpt lon="101.020768" lat="13.172371">
                <ele>56.855103</ele>
                <time>2004-08-28T10:26:39Z</time>
            </trkpt>
            <trkpt lon="101.020575" lat="13.172028">
                <ele>53.490479</ele>
                <time>2004-08-28T10:26:48Z</time>
            </trkpt>
            <trkpt lon="101.020553" lat="13.171964">
                <ele>53.009766</ele>
                <time>2004-08-28T10:26:50Z</time>
            </trkpt>
            <trkpt lon="101.020489" lat="13.171792">
                <ele>52.529175</ele>
                <time>2004-08-28T10:26:54Z</time>
            </trkpt>
            <trkpt lon="101.020253" lat="13.171341">
                <ele>49.645264</ele>
                <time>2004-08-28T10:27:06Z</time>
            </trkpt>
            <trkpt lon="101.020060" lat="13.170891">
                <ele>49.645264</ele>
                <time>2004-08-28T10:27:18Z</time>
            </trkpt>
            <trkpt lon="101.019866" lat="13.170397">
                <ele>52.529175</ele>
                <time>2004-08-28T10:27:32Z</time>
            </trkpt>
            <trkpt lon="101.019588" lat="13.169839">
                <ele>53.009766</ele>
                <time>2004-08-28T10:27:49Z</time>
            </trkpt>
            <trkpt lon="101.019394" lat="13.169818">
                <ele>53.009766</ele>
                <time>2004-08-28T10:27:59Z</time>
            </trkpt>
            <trkpt lon="101.018751" lat="13.170118">
                <ele>50.125977</ele>
                <time>2004-08-28T10:28:13Z</time>
            </trkpt>
            <trkpt lon="101.017592" lat="13.170633">
                <ele>46.761230</ele>
                <time>2004-08-28T10:28:32Z</time>
            </trkpt>
            <trkpt lon="101.016326" lat="13.171277">
                <ele>44.838623</ele>
                <time>2004-08-28T10:28:52Z</time>
            </trkpt>
            <trkpt lon="101.016111" lat="13.171363">
                <ele>44.358032</ele>
                <time>2004-08-28T10:29:05Z</time>
            </trkpt>
            <trkpt lon="101.016090" lat="13.171384">
                <ele>43.877319</ele>
                <time>2004-08-28T10:29:34Z</time>
            </trkpt>
            <trkpt lon="101.016026" lat="13.171427">
                <ele>44.358032</ele>
                <time>2004-08-28T10:30:29Z</time>
            </trkpt>
            <trkpt lon="101.015790" lat="13.171813">
                <ele>43.877319</ele>
                <time>2004-08-28T10:30:42Z</time>
            </trkpt>
            <trkpt lon="101.015489" lat="13.172414">
                <ele>43.396606</ele>
                <time>2004-08-28T10:30:57Z</time>
            </trkpt>
            <trkpt lon="101.015382" lat="13.172607">
                <ele>43.396606</ele>
                <time>2004-08-28T10:31:01Z</time>
            </trkpt>
            <trkpt lon="101.015317" lat="13.172758">
                <ele>42.916016</ele>
                <time>2004-08-28T10:31:04Z</time>
            </trkpt>
            <trkpt lon="101.015103" lat="13.173187">
                <ele>42.916016</ele>
                <time>2004-08-28T10:31:13Z</time>
            </trkpt>
            <trkpt lon="101.015017" lat="13.173358">
                <ele>42.916016</ele>
                <time>2004-08-28T10:31:17Z</time>
            </trkpt>
            <trkpt lon="101.014545" lat="13.174045">
                <ele>42.435425</ele>
                <time>2004-08-28T10:31:33Z</time>
            </trkpt>
            <trkpt lon="101.014330" lat="13.174453">
                <ele>41.954712</ele>
                <time>2004-08-28T10:31:41Z</time>
            </trkpt>
            <trkpt lon="101.013794" lat="13.174946">
                <ele>40.993408</ele>
                <time>2004-08-28T10:31:54Z</time>
            </trkpt>
            <trkpt lon="101.012914" lat="13.175526">
                <ele>41.473999</ele>
                <time>2004-08-28T10:32:13Z</time>
            </trkpt>
            <trkpt lon="101.012228" lat="13.175976">
                <ele>40.512817</ele>
                <time>2004-08-28T10:32:28Z</time>
            </trkpt>
            <trkpt lon="101.011562" lat="13.176255">
                <ele>39.551270</ele>
                <time>2004-08-28T10:32:40Z</time>
            </trkpt>
            <trkpt lon="101.011262" lat="13.176234">
                <ele>38.590088</ele>
                <time>2004-08-28T10:32:45Z</time>
            </trkpt>
            <trkpt lon="101.009717" lat="13.176363">
                <ele>34.264160</ele>
                <time>2004-08-28T10:33:10Z</time>
            </trkpt>
            <trkpt lon="101.009417" lat="13.176384">
                <ele>34.264160</ele>
                <time>2004-08-28T10:33:15Z</time>
            </trkpt>
            <trkpt lon="101.008816" lat="13.176384">
                <ele>34.264160</ele>
                <time>2004-08-28T10:33:27Z</time>
            </trkpt>
            <trkpt lon="101.008172" lat="13.176663">
                <ele>34.744873</ele>
                <time>2004-08-28T10:33:41Z</time>
            </trkpt>
            <trkpt lon="101.007786" lat="13.177006">
                <ele>35.225464</ele>
                <time>2004-08-28T10:33:50Z</time>
            </trkpt>
            <trkpt lon="101.007142" lat="13.177607">
                <ele>34.264160</ele>
                <time>2004-08-28T10:34:06Z</time>
            </trkpt>
            <trkpt lon="101.006863" lat="13.177865">
                <ele>34.264160</ele>
                <time>2004-08-28T10:34:13Z</time>
            </trkpt>
            <trkpt lon="101.006777" lat="13.177950">
                <ele>33.783447</ele>
                <time>2004-08-28T10:34:15Z</time>
            </trkpt>
            <trkpt lon="101.006670" lat="13.177993">
                <ele>34.744873</ele>
                <time>2004-08-28T10:34:17Z</time>
            </trkpt>
            <trkpt lon="101.006434" lat="13.178036">
                <ele>34.744873</ele>
                <time>2004-08-28T10:34:22Z</time>
            </trkpt>
            <trkpt lon="101.005769" lat="13.178251">
                <ele>33.783447</ele>
                <time>2004-08-28T10:34:34Z</time>
            </trkpt>
            <trkpt lon="101.005232" lat="13.178637">
                <ele>33.302856</ele>
                <time>2004-08-28T10:34:45Z</time>
            </trkpt>
            <trkpt lon="101.004975" lat="13.178787">
                <ele>33.302856</ele>
                <time>2004-08-28T10:34:50Z</time>
            </trkpt>
            <trkpt lon="101.004610" lat="13.178937">
                <ele>32.341553</ele>
                <time>2004-08-28T10:34:57Z</time>
            </trkpt>
            <trkpt lon="101.004331" lat="13.179066">
                <ele>32.341553</ele>
                <time>2004-08-28T10:35:03Z</time>
            </trkpt>
            <trkpt lon="101.004138" lat="13.179410">
                <ele>32.341553</ele>
                <time>2004-08-28T10:35:12Z</time>
            </trkpt>
            <trkpt lon="101.004052" lat="13.179967">
                <ele>32.341553</ele>
                <time>2004-08-28T10:35:23Z</time>
            </trkpt>
            <trkpt lon="101.003644" lat="13.180633">
                <ele>31.860718</ele>
                <time>2004-08-28T10:35:37Z</time>
            </trkpt>
            <trkpt lon="101.003280" lat="13.180783">
                <ele>32.822266</ele>
                <time>2004-08-28T10:35:44Z</time>
            </trkpt>
            <trkpt lon="101.003129" lat="13.180869">
                <ele>32.822266</ele>
                <time>2004-08-28T10:35:47Z</time>
            </trkpt>
            <trkpt lon="101.002314" lat="13.181083">
                <ele>31.860718</ele>
                <time>2004-08-28T10:36:01Z</time>
            </trkpt>
            <trkpt lon="101.002164" lat="13.181148">
                <ele>31.380127</ele>
                <time>2004-08-28T10:36:04Z</time>
            </trkpt>
            <trkpt lon="101.001542" lat="13.181705">
                <ele>33.302856</ele>
                <time>2004-08-28T10:36:20Z</time>
            </trkpt>
            <trkpt lon="101.001241" lat="13.181984">
                <ele>33.302856</ele>
                <time>2004-08-28T10:36:27Z</time>
            </trkpt>
            <trkpt lon="101.001005" lat="13.182220">
                <ele>32.822266</ele>
                <time>2004-08-28T10:36:33Z</time>
            </trkpt>
            <trkpt lon="101.000640" lat="13.182542">
                <ele>31.380127</ele>
                <time>2004-08-28T10:36:41Z</time>
            </trkpt>
            <trkpt lon="101.000533" lat="13.182628">
                <ele>31.380127</ele>
                <time>2004-08-28T10:36:43Z</time>
            </trkpt>
            <trkpt lon="100.999889" lat="13.182864">
                <ele>30.418823</ele>
                <time>2004-08-28T10:36:55Z</time>
            </trkpt>
            <trkpt lon="100.999031" lat="13.183250">
                <ele>29.938110</ele>
                <time>2004-08-28T10:37:12Z</time>
            </trkpt>
            <trkpt lon="100.998516" lat="13.183658">
                <ele>30.418823</ele>
                <time>2004-08-28T10:37:23Z</time>
            </trkpt>
            <trkpt lon="100.998344" lat="13.183808">
                <ele>30.418823</ele>
                <time>2004-08-28T10:37:27Z</time>
            </trkpt>
            <trkpt lon="100.998151" lat="13.183959">
                <ele>29.938110</ele>
                <time>2004-08-28T10:37:31Z</time>
            </trkpt>
            <trkpt lon="100.998001" lat="13.184259">
                <ele>29.938110</ele>
                <time>2004-08-28T10:37:38Z</time>
            </trkpt>
            <trkpt lon="100.997787" lat="13.184774">
                <ele>29.457520</ele>
                <time>2004-08-28T10:37:49Z</time>
            </trkpt>
            <trkpt lon="100.997314" lat="13.185461">
                <ele>29.457520</ele>
                <time>2004-08-28T10:38:05Z</time>
            </trkpt>
            <trkpt lon="100.997250" lat="13.185589">
                <ele>29.457520</ele>
                <time>2004-08-28T10:38:08Z</time>
            </trkpt>
            <trkpt lon="100.996885" lat="13.186426">
                <ele>28.976929</ele>
                <time>2004-08-28T10:38:27Z</time>
            </trkpt>
            <trkpt lon="100.996735" lat="13.186684">
                <ele>28.496216</ele>
                <time>2004-08-28T10:38:33Z</time>
            </trkpt>
            <trkpt lon="100.996263" lat="13.187349">
                <ele>28.496216</ele>
                <time>2004-08-28T10:38:49Z</time>
            </trkpt>
            <trkpt lon="100.996027" lat="13.187499">
                <ele>28.976929</ele>
                <time>2004-08-28T10:38:55Z</time>
            </trkpt>
            <trkpt lon="100.995855" lat="13.187563">
                <ele>28.496216</ele>
                <time>2004-08-28T10:38:59Z</time>
            </trkpt>
            <trkpt lon="100.995512" lat="13.187606">
                <ele>28.015503</ele>
                <time>2004-08-28T10:39:06Z</time>
            </trkpt>
            <trkpt lon="100.995340" lat="13.187542">
                <ele>28.015503</ele>
                <time>2004-08-28T10:39:10Z</time>
            </trkpt>
            <trkpt lon="100.995061" lat="13.187284">
                <ele>28.496216</ele>
                <time>2004-08-28T10:39:21Z</time>
            </trkpt>
            <trkpt lon="100.994954" lat="13.187156">
                <ele>28.496216</ele>
                <time>2004-08-28T10:39:25Z</time>
            </trkpt>
            <trkpt lon="100.994246" lat="13.186598">
                <ele>26.573608</ele>
                <time>2004-08-28T10:39:44Z</time>
            </trkpt>
            <trkpt lon="100.993302" lat="13.186362">
                <ele>25.612305</ele>
                <time>2004-08-28T10:40:02Z</time>
            </trkpt>
            <trkpt lon="100.991757" lat="13.186276">
                <ele>22.247559</ele>
                <time>2004-08-28T10:40:28Z</time>
            </trkpt>
            <trkpt lon="100.990577" lat="13.186212">
                <ele>21.286377</ele>
                <time>2004-08-28T10:40:48Z</time>
            </trkpt>
            <trkpt lon="100.989354" lat="13.186147">
                <ele>22.247559</ele>
                <time>2004-08-28T10:41:09Z</time>
            </trkpt>
            <trkpt lon="100.988152" lat="13.186104">
                <ele>24.170288</ele>
                <time>2004-08-28T10:41:31Z</time>
            </trkpt>
            <trkpt lon="100.986950" lat="13.186040">
                <ele>24.651001</ele>
                <time>2004-08-28T10:41:54Z</time>
            </trkpt>
            <trkpt lon="100.985813" lat="13.185997">
                <ele>26.092896</ele>
                <time>2004-08-28T10:42:15Z</time>
            </trkpt>
            <trkpt lon="100.984805" lat="13.185933">
                <ele>26.573608</ele>
                <time>2004-08-28T10:42:33Z</time>
            </trkpt>
            <trkpt lon="100.983646" lat="13.185890">
                <ele>27.054321</ele>
                <time>2004-08-28T10:42:53Z</time>
            </trkpt>
            <trkpt lon="100.982466" lat="13.186083">
                <ele>26.573608</ele>
                <time>2004-08-28T10:43:12Z</time>
            </trkpt>
            <trkpt lon="100.981457" lat="13.186641">
                <ele>28.015503</ele>
                <time>2004-08-28T10:43:30Z</time>
            </trkpt>
            <trkpt lon="100.980341" lat="13.187177">
                <ele>29.457520</ele>
                <time>2004-08-28T10:43:51Z</time>
            </trkpt>
            <trkpt lon="100.979204" lat="13.187370">
                <ele>27.054321</ele>
                <time>2004-08-28T10:44:10Z</time>
            </trkpt>
            <trkpt lon="100.978067" lat="13.187220">
                <ele>25.612305</ele>
                <time>2004-08-28T10:44:29Z</time>
            </trkpt>
            <trkpt lon="100.977080" lat="13.186834">
                <ele>25.131714</ele>
                <time>2004-08-28T10:44:47Z</time>
            </trkpt>
            <trkpt lon="100.976307" lat="13.186255">
                <ele>26.573608</ele>
                <time>2004-08-28T10:45:05Z</time>
            </trkpt>
            <trkpt lon="100.975814" lat="13.185503">
                <ele>28.015503</ele>
                <time>2004-08-28T10:45:23Z</time>
            </trkpt>
            <trkpt lon="100.975363" lat="13.184495">
                <ele>28.015503</ele>
                <time>2004-08-28T10:45:47Z</time>
            </trkpt>
            <trkpt lon="100.975020" lat="13.183379">
                <ele>28.015503</ele>
                <time>2004-08-28T10:46:10Z</time>
            </trkpt>
            <trkpt lon="100.975041" lat="13.182285">
                <ele>26.092896</ele>
                <time>2004-08-28T10:46:31Z</time>
            </trkpt>
            <trkpt lon="100.974956" lat="13.181298">
                <ele>27.534912</ele>
                <time>2004-08-28T10:46:50Z</time>
            </trkpt>
            <trkpt lon="100.974720" lat="13.180182">
                <ele>28.976929</ele>
                <time>2004-08-28T10:47:12Z</time>
            </trkpt>
            <trkpt lon="100.974483" lat="13.179152">
                <ele>28.976929</ele>
                <time>2004-08-28T10:47:33Z</time>
            </trkpt>
            <trkpt lon="100.974247" lat="13.178122">
                <ele>28.496216</ele>
                <time>2004-08-28T10:47:54Z</time>
            </trkpt>
            <trkpt lon="100.973990" lat="13.177028">
                <ele>28.976929</ele>
                <time>2004-08-28T10:48:16Z</time>
            </trkpt>
            <trkpt lon="100.973732" lat="13.176599">
                <ele>29.457520</ele>
                <time>2004-08-28T10:48:26Z</time>
            </trkpt>
            <trkpt lon="100.973024" lat="13.176191">
                <ele>28.496216</ele>
                <time>2004-08-28T10:48:42Z</time>
            </trkpt>
            <trkpt lon="100.972617" lat="13.176169">
                <ele>28.496216</ele>
                <time>2004-08-28T10:48:53Z</time>
            </trkpt>
            <trkpt lon="100.972638" lat="13.176169">
                <ele>28.496216</ele>
                <time>2004-08-28T10:48:57Z</time>
            </trkpt>
            <trkpt lon="100.972703" lat="13.176148">
                <ele>28.976929</ele>
                <time>2004-08-28T10:49:01Z</time>
            </trkpt>
            <trkpt lon="100.972767" lat="13.176126">
                <ele>28.496216</ele>
                <time>2004-08-28T10:49:05Z</time>
            </trkpt>
            <trkpt lon="100.972745" lat="13.176019">
                <ele>27.534912</ele>
                <time>2004-08-28T10:49:15Z</time>
            </trkpt>
            <trkpt lon="100.972745" lat="13.176019">
                <ele>27.534912</ele>
                <time>2004-08-28T10:49:30Z</time>
            </trkpt>
            <trkpt lon="100.972681" lat="13.176169">
                <ele>27.534912</ele>
                <time>2004-08-28T10:49:40Z</time>
            </trkpt>
            <trkpt lon="100.972359" lat="13.176234">
                <ele>28.015503</ele>
                <time>2004-08-28T10:49:49Z</time>
            </trkpt>
            <trkpt lon="100.972188" lat="13.176320">
                <ele>28.015503</ele>
                <time>2004-08-28T10:49:53Z</time>
            </trkpt>
            <trkpt lon="100.971823" lat="13.176641">
                <ele>28.015503</ele>
                <time>2004-08-28T10:50:03Z</time>
            </trkpt>
            <trkpt lon="100.971565" lat="13.177435">
                <ele>28.976929</ele>
                <time>2004-08-28T10:50:20Z</time>
            </trkpt>
            <trkpt lon="100.971630" lat="13.178229">
                <ele>30.418823</ele>
                <time>2004-08-28T10:50:36Z</time>
            </trkpt>
            <trkpt lon="100.971715" lat="13.178895">
                <ele>28.015503</ele>
                <time>2004-08-28T10:50:51Z</time>
            </trkpt>
            <trkpt lon="100.971887" lat="13.180096">
                <ele>28.015503</ele>
                <time>2004-08-28T10:51:13Z</time>
            </trkpt>
            <trkpt lon="100.971951" lat="13.181319">
                <ele>27.534912</ele>
                <time>2004-08-28T10:51:34Z</time>
            </trkpt>
            <trkpt lon="100.971737" lat="13.182392">
                <ele>28.015503</ele>
                <time>2004-08-28T10:51:52Z</time>
            </trkpt>
            <trkpt lon="100.971179" lat="13.183594">
                <ele>27.054321</ele>
                <time>2004-08-28T10:52:13Z</time>
            </trkpt>
            <trkpt lon="100.970685" lat="13.184280">
                <ele>25.612305</ele>
                <time>2004-08-28T10:52:27Z</time>
            </trkpt>
            <trkpt lon="100.970106" lat="13.184516">
                <ele>26.092896</ele>
                <time>2004-08-28T10:52:38Z</time>
            </trkpt>
            <trkpt lon="100.969656" lat="13.184302">
                <ele>25.612305</ele>
                <time>2004-08-28T10:52:47Z</time>
            </trkpt>
            <trkpt lon="100.969098" lat="13.183658">
                <ele>26.092896</ele>
                <time>2004-08-28T10:53:04Z</time>
            </trkpt>
            <trkpt lon="100.968947" lat="13.183551">
                <ele>27.534912</ele>
                <time>2004-08-28T10:53:15Z</time>
            </trkpt>
            <trkpt lon="100.968990" lat="13.183551">
                <ele>29.938110</ele>
                <time>2004-08-28T10:54:38Z</time>
            </trkpt>
            <trkpt lon="100.968990" lat="13.183529">
                <ele>29.457520</ele>
                <time>2004-08-28T10:54:40Z</time>
            </trkpt>
            <trkpt lon="100.969012" lat="13.183486">
                <ele>29.938110</ele>
                <time>2004-08-28T10:54:44Z</time>
            </trkpt>
            <trkpt lon="100.969012" lat="13.183465">
                <ele>30.899536</ele>
                <time>2004-08-28T10:55:01Z</time>
            </trkpt>
            <trkpt lon="100.969012" lat="13.183444">
                <ele>30.899536</ele>
                <time>2004-08-28T10:55:13Z</time>
            </trkpt>
            <trkpt lon="100.968990" lat="13.183444">
                <ele>31.380127</ele>
                <time>2004-08-28T10:55:27Z</time>
            </trkpt>
            <trkpt lon="100.968990" lat="13.183444">
                <ele>32.341553</ele>
                <time>2004-08-28T10:57:39Z</time>
            </trkpt>
            <trkpt lon="100.968990" lat="13.183422">
                <ele>32.341553</ele>
                <time>2004-08-28T10:57:52Z</time>
            </trkpt>
            <trkpt lon="100.968969" lat="13.183422">
                <ele>34.264160</ele>
                <time>2004-08-28T10:58:52Z</time>
            </trkpt>
        </trkseg>
    </trk>
</gpx>